<?xml version="1.0" encoding="UTF-8" standalone="no" ?>
<gpx xmlns="http://www.topografix.com/GPX/1/1" xmlns:xsi="http://www.w3.org/2001/XMLSchema-instance" xsi:schemaLocation="http://www.topografix.com/GPX/1/1 http://www.topografix.com/GPX/1/1/gpx.xsd" version="1.1" creator="VisuGPX - https://www.visugpx.com">
  <metadata>
    <name>Vélo de route à La beauté des paysages des Vosges du Nord</name>
  </metadata>
  <trk>
    <name><![CDATA[Vélo de route à La beauté des paysages des Vosges du Nord]]></name>
    <trkseg>
      <trkpt lat="48.95367" lon="7.76137">
        <ele>208.796943</ele>
        <time>2024-03-09T11:35:03.446Z</time>
      </trkpt>
      <trkpt lat="48.95354" lon="7.76126">
        <ele>208.796943</ele>
        <time>2024-03-09T11:35:06.158Z</time>
      </trkpt>
      <trkpt lat="48.95335" lon="7.76141">
        <ele>208.796943</ele>
        <time>2024-03-09T11:35:10.314Z</time>
      </trkpt>
      <trkpt lat="48.95324" lon="7.76151">
        <ele>208.796943</ele>
        <time>2024-03-09T11:35:12.373Z</time>
      </trkpt>
      <trkpt lat="48.95295" lon="7.76188">
        <ele>208.796943</ele>
        <time>2024-03-09T11:35:18.871Z</time>
      </trkpt>
      <trkpt lat="48.95293" lon="7.76155">
        <ele>207.840203</ele>
        <time>2024-03-09T11:35:22.906Z</time>
      </trkpt>
      <trkpt lat="48.95288" lon="7.76122">
        <ele>206.746182</ele>
        <time>2024-03-09T11:35:26.460Z</time>
      </trkpt>
      <trkpt lat="48.95283" lon="7.76098">
        <ele>205.928521</ele>
        <time>2024-03-09T11:35:29.234Z</time>
      </trkpt>
      <trkpt lat="48.95277" lon="7.76057">
        <ele>204.537087</ele>
        <time>2024-03-09T11:35:33.799Z</time>
      </trkpt>
      <trkpt lat="48.95277" lon="7.76038">
        <ele>203.921914</ele>
        <time>2024-03-09T11:35:35.784Z</time>
      </trkpt>
      <trkpt lat="48.9528" lon="7.76026">
        <ele>203.497125</ele>
        <time>2024-03-09T11:35:37.118Z</time>
      </trkpt>
      <trkpt lat="48.95285" lon="7.76014">
        <ele>203.016579</ele>
        <time>2024-03-09T11:35:38.726Z</time>
      </trkpt>
      <trkpt lat="48.95356" lon="7.75917">
        <ele>198.758502</ele>
        <time>2024-03-09T11:35:54.419Z</time>
      </trkpt>
      <trkpt lat="48.9537" lon="7.75902">
        <ele>198.194901</ele>
        <time>2024-03-09T11:35:57.685Z</time>
      </trkpt>
      <trkpt lat="48.9539" lon="7.75884">
        <ele>197.401158</ele>
        <time>2024-03-09T11:36:01.750Z</time>
      </trkpt>
      <trkpt lat="48.95415" lon="7.7587">
        <ele>196.49534</ele>
        <time>2024-03-09T11:36:06.929Z</time>
      </trkpt>
      <trkpt lat="48.95441" lon="7.75859">
        <ele>195.60511</ele>
        <time>2024-03-09T11:36:11.947Z</time>
      </trkpt>
      <trkpt lat="48.95486" lon="7.7585">
        <ele>194.094163</ele>
        <time>2024-03-09T11:36:20.231Z</time>
      </trkpt>
      <trkpt lat="48.95508" lon="7.75845">
        <ele>193.24567</ele>
        <time>2024-03-09T11:36:24.299Z</time>
      </trkpt>
      <trkpt lat="48.95517" lon="7.75841">
        <ele>192.85162</ele>
        <time>2024-03-09T11:36:25.976Z</time>
      </trkpt>
      <trkpt lat="48.95524" lon="7.75834">
        <ele>192.512103</ele>
        <time>2024-03-09T11:36:27.450Z</time>
      </trkpt>
      <trkpt lat="48.95547" lon="7.75792">
        <ele>191.013337</ele>
        <time>2024-03-09T11:36:33.856Z</time>
      </trkpt>
      <trkpt lat="48.95645" lon="7.75726">
        <ele>186.528116</ele>
        <time>2024-03-09T11:36:51.971Z</time>
      </trkpt>
      <trkpt lat="48.95659" lon="7.75723">
        <ele>185.940809</ele>
        <time>2024-03-09T11:36:54.255Z</time>
      </trkpt>
      <trkpt lat="48.95672" lon="7.75725">
        <ele>185.437029</ele>
        <time>2024-03-09T11:36:56.335Z</time>
      </trkpt>
      <trkpt lat="48.95692" lon="7.75738">
        <ele>184.539089</ele>
        <time>2024-03-09T11:36:59.899Z</time>
      </trkpt>
      <trkpt lat="48.95743" lon="7.75765">
        <ele>182.357421</ele>
        <time>2024-03-09T11:37:08.972Z</time>
      </trkpt>
      <trkpt lat="48.95786" lon="7.75782">
        <ele>180.560312</ele>
        <time>2024-03-09T11:37:16.639Z</time>
      </trkpt>
      <trkpt lat="48.95826" lon="7.75791">
        <ele>178.988387</ele>
        <time>2024-03-09T11:37:24.142Z</time>
      </trkpt>
      <trkpt lat="48.95863" lon="7.75791">
        <ele>178.920826</ele>
        <time>2024-03-09T11:37:31.526Z</time>
      </trkpt>
      <trkpt lat="48.95891" lon="7.75791">
        <ele>178.868772</ele>
        <time>2024-03-09T11:37:37.458Z</time>
      </trkpt>
      <trkpt lat="48.95899" lon="7.75789">
        <ele>178.853403</ele>
        <time>2024-03-09T11:37:39.334Z</time>
      </trkpt>
      <trkpt lat="48.95905" lon="7.75801">
        <ele>178.834192</ele>
        <time>2024-03-09T11:37:41.508Z</time>
      </trkpt>
      <trkpt lat="48.95919" lon="7.75818">
        <ele>178.801369</ele>
        <time>2024-03-09T11:37:45.598Z</time>
      </trkpt>
      <trkpt lat="48.95983" lon="7.7589">
        <ele>178.721259</ele>
        <time>2024-03-09T11:38:07.658Z</time>
      </trkpt>
      <trkpt lat="48.96026" lon="7.75948">
        <ele>180.133293</ele>
        <time>2024-03-09T11:38:26.965Z</time>
      </trkpt>
      <trkpt lat="48.96055" lon="7.75972">
        <ele>180.949111</ele>
        <time>2024-03-09T11:38:39.557Z</time>
      </trkpt>
      <trkpt lat="48.96161" lon="7.76059">
        <ele>183.889955</ele>
        <time>2024-03-09T11:39:24.126Z</time>
      </trkpt>
      <trkpt lat="48.96367" lon="7.76255">
        <ele>188.654863</ele>
        <time>2024-03-09T11:40:45.687Z</time>
      </trkpt>
      <trkpt lat="48.96402" lon="7.76278">
        <ele>189.121573</ele>
        <time>2024-03-09T11:40:55.169Z</time>
      </trkpt>
      <trkpt lat="48.96459" lon="7.76304">
        <ele>189.493791</ele>
        <time>2024-03-09T11:41:08.272Z</time>
      </trkpt>
      <trkpt lat="48.9651" lon="7.7632">
        <ele>188.813774</ele>
        <time>2024-03-09T11:41:18.839Z</time>
      </trkpt>
      <trkpt lat="48.96551" lon="7.76324">
        <ele>188.28015</ele>
        <time>2024-03-09T11:41:26.585Z</time>
      </trkpt>
      <trkpt lat="48.96625" lon="7.7631">
        <ele>187.295619</ele>
        <time>2024-03-09T11:41:40.286Z</time>
      </trkpt>
      <trkpt lat="48.96712" lon="7.7628">
        <ele>185.480912</ele>
        <time>2024-03-09T11:41:56.746Z</time>
      </trkpt>
      <trkpt lat="48.96753" lon="7.76274">
        <ele>184.653763</ele>
        <time>2024-03-09T11:42:04.178Z</time>
      </trkpt>
      <trkpt lat="48.96836" lon="7.76307">
        <ele>183.191058</ele>
        <time>2024-03-09T11:42:20.553Z</time>
      </trkpt>
      <trkpt lat="48.96936" lon="7.76347">
        <ele>181.867504</ele>
        <time>2024-03-09T11:42:41.203Z</time>
      </trkpt>
      <trkpt lat="48.96941" lon="7.76334">
        <ele>181.748687</ele>
        <time>2024-03-09T11:42:43.267Z</time>
      </trkpt>
      <trkpt lat="48.96948" lon="7.76317">
        <ele>181.57744</ele>
        <time>2024-03-09T11:42:45.983Z</time>
      </trkpt>
      <trkpt lat="48.96971" lon="7.76327">
        <ele>181.454446</ele>
        <time>2024-03-09T11:42:51.429Z</time>
      </trkpt>
      <trkpt lat="48.97288" lon="7.76426">
        <ele>184.423559</ele>
        <time>2024-03-09T11:44:23.471Z</time>
      </trkpt>
      <trkpt lat="48.97321" lon="7.76441">
        <ele>184.757092</ele>
        <time>2024-03-09T11:44:33.575Z</time>
      </trkpt>
      <trkpt lat="48.97348" lon="7.76463">
        <ele>184.940682</ele>
        <time>2024-03-09T11:44:42.341Z</time>
      </trkpt>
      <trkpt lat="48.97382" lon="7.76497">
        <ele>185.182126</ele>
        <time>2024-03-09T11:44:53.562Z</time>
      </trkpt>
      <trkpt lat="48.97407" lon="7.76527">
        <ele>185.372049</ele>
        <time>2024-03-09T11:45:02.072Z</time>
      </trkpt>
      <trkpt lat="48.97546" lon="7.7672">
        <ele>185.667132</ele>
        <time>2024-03-09T11:45:45.715Z</time>
      </trkpt>
      <trkpt lat="48.97565" lon="7.76739">
        <ele>185.64339</ele>
        <time>2024-03-09T11:45:50.847Z</time>
      </trkpt>
      <trkpt lat="48.976" lon="7.76771">
        <ele>185.598254</ele>
        <time>2024-03-09T11:46:00.053Z</time>
      </trkpt>
      <trkpt lat="48.97625" lon="7.76788">
        <ele>185.537781</ele>
        <time>2024-03-09T11:46:06.155Z</time>
      </trkpt>
      <trkpt lat="48.97789" lon="7.76883">
        <ele>185.052769</ele>
        <time>2024-03-09T11:46:45.685Z</time>
      </trkpt>
      <trkpt lat="48.97824" lon="7.7691">
        <ele>184.812851</ele>
        <time>2024-03-09T11:46:54.349Z</time>
      </trkpt>
      <trkpt lat="48.97858" lon="7.76944">
        <ele>184.565744</ele>
        <time>2024-03-09T11:47:03.131Z</time>
      </trkpt>
      <trkpt lat="48.97886" lon="7.76978">
        <ele>184.347234</ele>
        <time>2024-03-09T11:47:10.821Z</time>
      </trkpt>
      <trkpt lat="48.97986" lon="7.77137">
        <ele>183.453119</ele>
        <time>2024-03-09T11:47:40.992Z</time>
      </trkpt>
      <trkpt lat="48.98029" lon="7.77189">
        <ele>183.112807</ele>
        <time>2024-03-09T11:47:53.025Z</time>
      </trkpt>
      <trkpt lat="48.98063" lon="7.77215">
        <ele>183.059867</ele>
        <time>2024-03-09T11:48:01.801Z</time>
      </trkpt>
      <trkpt lat="48.98085" lon="7.77227">
        <ele>183.151705</ele>
        <time>2024-03-09T11:48:07.603Z</time>
      </trkpt>
      <trkpt lat="48.9812" lon="7.7724">
        <ele>183.289731</ele>
        <time>2024-03-09T11:48:16.782Z</time>
      </trkpt>
      <trkpt lat="48.98176" lon="7.77247">
        <ele>183.504453</ele>
        <time>2024-03-09T11:48:31.627Z</time>
      </trkpt>
      <trkpt lat="48.98289" lon="7.77225">
        <ele>183.764731</ele>
        <time>2024-03-09T11:49:00.563Z</time>
      </trkpt>
      <trkpt lat="48.98382" lon="7.77213">
        <ele>183.880329</ele>
        <time>2024-03-09T11:49:22.212Z</time>
      </trkpt>
      <trkpt lat="48.98423" lon="7.77211">
        <ele>183.898427</ele>
        <time>2024-03-09T11:49:31.492Z</time>
      </trkpt>
      <trkpt lat="48.9847" lon="7.77222">
        <ele>183.886996</ele>
        <time>2024-03-09T11:49:41.999Z</time>
      </trkpt>
      <trkpt lat="48.98731" lon="7.77352">
        <ele>184.240293</ele>
        <time>2024-03-09T11:50:47.397Z</time>
      </trkpt>
      <trkpt lat="48.98801" lon="7.77414">
        <ele>184.961069</ele>
        <time>2024-03-09T11:51:08.728Z</time>
      </trkpt>
      <trkpt lat="48.98865" lon="7.77498">
        <ele>185.839753</ele>
        <time>2024-03-09T11:51:33.252Z</time>
      </trkpt>
      <trkpt lat="48.98893" lon="7.77555">
        <ele>186.430322</ele>
        <time>2024-03-09T11:51:48.065Z</time>
      </trkpt>
      <trkpt lat="48.99004" lon="7.77917">
        <ele>189.94518</ele>
        <time>2024-03-09T11:53:10.384Z</time>
      </trkpt>
      <trkpt lat="48.99031" lon="7.77975">
        <ele>190.359527</ele>
        <time>2024-03-09T11:53:21.633Z</time>
      </trkpt>
      <trkpt lat="48.99075" lon="7.78036">
        <ele>190.526631</ele>
        <time>2024-03-09T11:53:35.082Z</time>
      </trkpt>
      <trkpt lat="48.99273" lon="7.78211">
        <ele>189.665531</ele>
        <time>2024-03-09T11:54:24.668Z</time>
      </trkpt>
      <trkpt lat="48.9928" lon="7.78216">
        <ele>189.65629</ele>
        <time>2024-03-09T11:54:26.199Z</time>
      </trkpt>
      <trkpt lat="48.99285" lon="7.78222">
        <ele>189.647351</ele>
        <time>2024-03-09T11:54:27.834Z</time>
      </trkpt>
      <trkpt lat="48.99286" lon="7.78228">
        <ele>189.641361</ele>
        <time>2024-03-09T11:54:29.573Z</time>
      </trkpt>
      <trkpt lat="48.99281" lon="7.7824">
        <ele>189.629534</ele>
        <time>2024-03-09T11:54:32.036Z</time>
      </trkpt>
      <trkpt lat="48.99287" lon="7.78244">
        <ele>189.621648</ele>
        <time>2024-03-09T11:54:33.256Z</time>
      </trkpt>
      <trkpt lat="48.99307" lon="7.78261">
        <ele>189.59208</ele>
        <time>2024-03-09T11:54:38.160Z</time>
      </trkpt>
      <trkpt lat="48.99338" lon="7.78288">
        <ele>189.545513</ele>
        <time>2024-03-09T11:54:46.299Z</time>
      </trkpt>
      <trkpt lat="48.99349" lon="7.783">
        <ele>189.531956</ele>
        <time>2024-03-09T11:54:49.967Z</time>
      </trkpt>
      <trkpt lat="48.99363" lon="7.78316">
        <ele>189.563731</ele>
        <time>2024-03-09T11:54:53.614Z</time>
      </trkpt>
      <trkpt lat="48.99379" lon="7.78337">
        <ele>189.602765</ele>
        <time>2024-03-09T11:54:59.098Z</time>
      </trkpt>
      <trkpt lat="48.99384" lon="7.78345">
        <ele>189.618113</ele>
        <time>2024-03-09T11:55:00.746Z</time>
      </trkpt>
      <trkpt lat="48.99399" lon="7.78368">
        <ele>189.657105</ele>
        <time>2024-03-09T11:55:06.414Z</time>
      </trkpt>
      <trkpt lat="48.99418" lon="7.78395">
        <ele>189.706047</ele>
        <time>2024-03-09T11:55:11.855Z</time>
      </trkpt>
      <trkpt lat="48.9944" lon="7.78427">
        <ele>189.76329</ele>
        <time>2024-03-09T11:55:18.802Z</time>
      </trkpt>
      <trkpt lat="48.99466" lon="7.78457">
        <ele>189.823851</ele>
        <time>2024-03-09T11:55:26.696Z</time>
      </trkpt>
      <trkpt lat="48.99528" lon="7.78516">
        <ele>190.191466</ele>
        <time>2024-03-09T11:55:43.961Z</time>
      </trkpt>
      <trkpt lat="48.99566" lon="7.78548">
        <ele>190.473432</ele>
        <time>2024-03-09T11:55:54.000Z</time>
      </trkpt>
      <trkpt lat="48.99581" lon="7.78557">
        <ele>190.57698</ele>
        <time>2024-03-09T11:55:58.249Z</time>
      </trkpt>
      <trkpt lat="48.99591" lon="7.78562">
        <ele>190.64265</ele>
        <time>2024-03-09T11:56:00.494Z</time>
      </trkpt>
      <trkpt lat="48.99636" lon="7.78575">
        <ele>190.941802</ele>
        <time>2024-03-09T11:56:12.101Z</time>
      </trkpt>
      <trkpt lat="48.99682" lon="7.78579">
        <ele>191.484624</ele>
        <time>2024-03-09T11:56:27.198Z</time>
      </trkpt>
      <trkpt lat="48.9968" lon="7.78587">
        <ele>191.568257</ele>
        <time>2024-03-09T11:56:29.765Z</time>
      </trkpt>
      <trkpt lat="48.99677" lon="7.78607">
        <ele>191.757291</ele>
        <time>2024-03-09T11:56:33.023Z</time>
      </trkpt>
      <trkpt lat="48.99674" lon="7.78621">
        <ele>191.889127</ele>
        <time>2024-03-09T11:56:36.366Z</time>
      </trkpt>
      <trkpt lat="48.99671" lon="7.78639">
        <ele>192.067006</ele>
        <time>2024-03-09T11:56:41.043Z</time>
      </trkpt>
      <trkpt lat="48.9967" lon="7.78644">
        <ele>192.114716</ele>
        <time>2024-03-09T11:56:42.178Z</time>
      </trkpt>
      <trkpt lat="48.9967" lon="7.78648">
        <ele>192.152308</ele>
        <time>2024-03-09T11:56:42.992Z</time>
      </trkpt>
      <trkpt lat="48.99667" lon="7.78662">
        <ele>192.289197</ele>
        <time>2024-03-09T11:56:45.334Z</time>
      </trkpt>
      <trkpt lat="48.99666" lon="7.78675">
        <ele>192.411258</ele>
        <time>2024-03-09T11:56:48.930Z</time>
      </trkpt>
      <trkpt lat="48.99665" lon="7.78681">
        <ele>192.468481</ele>
        <time>2024-03-09T11:56:50.389Z</time>
      </trkpt>
      <trkpt lat="48.99664" lon="7.78695">
        <ele>192.598343</ele>
        <time>2024-03-09T11:56:53.989Z</time>
      </trkpt>
      <trkpt lat="48.99664" lon="7.78715">
        <ele>192.784296</ele>
        <time>2024-03-09T11:56:56.761Z</time>
      </trkpt>
      <trkpt lat="48.99665" lon="7.7874">
        <ele>193.013753</ele>
        <time>2024-03-09T11:57:02.594Z</time>
      </trkpt>
      <trkpt lat="48.99667" lon="7.78761">
        <ele>193.211045</ele>
        <time>2024-03-09T11:57:06.196Z</time>
      </trkpt>
      <trkpt lat="48.9967" lon="7.78774">
        <ele>193.341372</ele>
        <time>2024-03-09T11:57:07.956Z</time>
      </trkpt>
      <trkpt lat="48.99675" lon="7.78792">
        <ele>193.523663</ele>
        <time>2024-03-09T11:57:12.840Z</time>
      </trkpt>
      <trkpt lat="48.99685" lon="7.78788">
        <ele>193.524711</ele>
        <time>2024-03-09T11:57:15.899Z</time>
      </trkpt>
      <trkpt lat="48.99709" lon="7.78782">
        <ele>193.347182</ele>
        <time>2024-03-09T11:57:21.493Z</time>
      </trkpt>
      <trkpt lat="48.99715" lon="7.78783">
        <ele>193.301579</ele>
        <time>2024-03-09T11:57:22.958Z</time>
      </trkpt>
      <trkpt lat="48.99709" lon="7.78782">
        <ele>193.255975</ele>
        <time>2024-03-09T11:57:24.356Z</time>
      </trkpt>
      <trkpt lat="48.99685" lon="7.78788">
        <ele>193.078446</ele>
        <time>2024-03-09T11:57:29.848Z</time>
      </trkpt>
      <trkpt lat="48.99675" lon="7.78792">
        <ele>193.000511</ele>
        <time>2024-03-09T11:57:31.973Z</time>
      </trkpt>
      <trkpt lat="48.9967" lon="7.78774">
        <ele>192.904892</ele>
        <time>2024-03-09T11:57:34.307Z</time>
      </trkpt>
      <trkpt lat="48.99667" lon="7.78761">
        <ele>192.836531</ele>
        <time>2024-03-09T11:57:37.351Z</time>
      </trkpt>
      <trkpt lat="48.99665" lon="7.7874">
        <ele>192.733044</ele>
        <time>2024-03-09T11:57:40.391Z</time>
      </trkpt>
      <trkpt lat="48.99664" lon="7.78715">
        <ele>192.612685</ele>
        <time>2024-03-09T11:57:43.390Z</time>
      </trkpt>
      <trkpt lat="48.99664" lon="7.78695">
        <ele>192.515145</ele>
        <time>2024-03-09T11:57:46.982Z</time>
      </trkpt>
      <trkpt lat="48.99665" lon="7.78681">
        <ele>192.447027</ele>
        <time>2024-03-09T11:57:48.627Z</time>
      </trkpt>
      <trkpt lat="48.99666" lon="7.78675">
        <ele>192.417011</ele>
        <time>2024-03-09T11:57:49.369Z</time>
      </trkpt>
      <trkpt lat="48.99667" lon="7.78662">
        <ele>192.352986</ele>
        <time>2024-03-09T11:57:50.872Z</time>
      </trkpt>
      <trkpt lat="48.9967" lon="7.78648">
        <ele>192.281182</ele>
        <time>2024-03-09T11:57:53.061Z</time>
      </trkpt>
      <trkpt lat="48.9967" lon="7.78644">
        <ele>192.261464</ele>
        <time>2024-03-09T11:57:53.594Z</time>
      </trkpt>
      <trkpt lat="48.99671" lon="7.78639">
        <ele>192.235159</ele>
        <time>2024-03-09T11:57:54.218Z</time>
      </trkpt>
      <trkpt lat="48.99674" lon="7.78621">
        <ele>192.084855</ele>
        <time>2024-03-09T11:57:56.533Z</time>
      </trkpt>
      <trkpt lat="48.99677" lon="7.78607">
        <ele>191.973456</ele>
        <time>2024-03-09T11:57:58.250Z</time>
      </trkpt>
      <trkpt lat="48.9968" lon="7.78587">
        <ele>191.813726</ele>
        <time>2024-03-09T11:58:01.254Z</time>
      </trkpt>
      <trkpt lat="48.99682" lon="7.78579">
        <ele>191.743058</ele>
        <time>2024-03-09T11:58:02.274Z</time>
      </trkpt>
      <trkpt lat="48.99636" lon="7.78575">
        <ele>191.19858</ele>
        <time>2024-03-09T11:58:10.520Z</time>
      </trkpt>
      <trkpt lat="48.99591" lon="7.78562">
        <ele>190.643387</ele>
        <time>2024-03-09T11:58:20.141Z</time>
      </trkpt>
      <trkpt lat="48.99581" lon="7.78557">
        <ele>190.521512</ele>
        <time>2024-03-09T11:58:22.458Z</time>
      </trkpt>
      <trkpt lat="48.99566" lon="7.78548">
        <ele>190.329338</ele>
        <time>2024-03-09T11:58:25.698Z</time>
      </trkpt>
      <trkpt lat="48.99528" lon="7.78516">
        <ele>190.017415</ele>
        <time>2024-03-09T11:58:35.228Z</time>
      </trkpt>
      <trkpt lat="48.99466" lon="7.78457">
        <ele>189.805976</ele>
        <time>2024-03-09T11:58:50.890Z</time>
      </trkpt>
      <trkpt lat="48.9944" lon="7.78427">
        <ele>189.712448</ele>
        <time>2024-03-09T11:58:57.689Z</time>
      </trkpt>
      <trkpt lat="48.99418" lon="7.78395">
        <ele>189.624046</ele>
        <time>2024-03-09T11:59:04.379Z</time>
      </trkpt>
      <trkpt lat="48.99399" lon="7.78368">
        <ele>189.559304</ele>
        <time>2024-03-09T11:59:10.334Z</time>
      </trkpt>
      <trkpt lat="48.99384" lon="7.78345">
        <ele>189.541312</ele>
        <time>2024-03-09T11:59:14.368Z</time>
      </trkpt>
      <trkpt lat="48.99379" lon="7.78337">
        <ele>189.53423</ele>
        <time>2024-03-09T11:59:16.299Z</time>
      </trkpt>
      <trkpt lat="48.99363" lon="7.78316">
        <ele>189.516218</ele>
        <time>2024-03-09T11:59:20.569Z</time>
      </trkpt>
      <trkpt lat="48.99349" lon="7.783">
        <ele>189.501556</ele>
        <time>2024-03-09T11:59:24.289Z</time>
      </trkpt>
      <trkpt lat="48.99338" lon="7.78288">
        <ele>189.489153</ele>
        <time>2024-03-09T11:59:27.638Z</time>
      </trkpt>
      <trkpt lat="48.99307" lon="7.78261">
        <ele>189.458312</ele>
        <time>2024-03-09T11:59:35.352Z</time>
      </trkpt>
      <trkpt lat="48.99338" lon="7.78288">
        <ele>189.42747</ele>
        <time>2024-03-09T11:59:43.635Z</time>
      </trkpt>
      <trkpt lat="48.99349" lon="7.783">
        <ele>189.415067</ele>
        <time>2024-03-09T11:59:46.747Z</time>
      </trkpt>
      <trkpt lat="48.99363" lon="7.78316">
        <ele>189.431697</ele>
        <time>2024-03-09T11:59:50.576Z</time>
      </trkpt>
      <trkpt lat="48.99379" lon="7.78337">
        <ele>189.485288</ele>
        <time>2024-03-09T11:59:55.888Z</time>
      </trkpt>
      <trkpt lat="48.99384" lon="7.78345">
        <ele>189.50636</ele>
        <time>2024-03-09T11:59:57.654Z</time>
      </trkpt>
      <trkpt lat="48.99399" lon="7.78368">
        <ele>189.559892</ele>
        <time>2024-03-09T12:00:03.567Z</time>
      </trkpt>
      <trkpt lat="48.99418" lon="7.78395">
        <ele>189.627087</ele>
        <time>2024-03-09T12:00:09.287Z</time>
      </trkpt>
      <trkpt lat="48.9944" lon="7.78427">
        <ele>189.705676</ele>
        <time>2024-03-09T12:00:16.260Z</time>
      </trkpt>
      <trkpt lat="48.99466" lon="7.78457">
        <ele>189.788822</ele>
        <time>2024-03-09T12:00:24.154Z</time>
      </trkpt>
      <trkpt lat="48.99528" lon="7.78516">
        <ele>189.873062</ele>
        <time>2024-03-09T12:00:41.420Z</time>
      </trkpt>
      <trkpt lat="48.99566" lon="7.78548">
        <ele>189.874853</ele>
        <time>2024-03-09T12:00:50.902Z</time>
      </trkpt>
      <trkpt lat="48.99581" lon="7.78557">
        <ele>189.875511</ele>
        <time>2024-03-09T12:00:54.424Z</time>
      </trkpt>
      <trkpt lat="48.99591" lon="7.78562">
        <ele>189.875928</ele>
        <time>2024-03-09T12:00:56.966Z</time>
      </trkpt>
      <trkpt lat="48.99636" lon="7.78575">
        <ele>189.877828</ele>
        <time>2024-03-09T12:01:06.884Z</time>
      </trkpt>
      <trkpt lat="48.99682" lon="7.78579">
        <ele>189.945829</ele>
        <time>2024-03-09T12:01:16.825Z</time>
      </trkpt>
      <trkpt lat="48.99728" lon="7.78583">
        <ele>190.083464</ele>
        <time>2024-03-09T12:01:27.337Z</time>
      </trkpt>
      <trkpt lat="48.99736" lon="7.78584">
        <ele>190.105845</ele>
        <time>2024-03-09T12:01:29.396Z</time>
      </trkpt>
      <trkpt lat="48.9976" lon="7.78587">
        <ele>190.175483</ele>
        <time>2024-03-09T12:01:35.041Z</time>
      </trkpt>
      <trkpt lat="48.99769" lon="7.78589">
        <ele>190.203059</ele>
        <time>2024-03-09T12:01:37.301Z</time>
      </trkpt>
      <trkpt lat="48.9981" lon="7.78605">
        <ele>190.327036</ele>
        <time>2024-03-09T12:01:47.699Z</time>
      </trkpt>
      <trkpt lat="48.99848" lon="7.7862">
        <ele>190.472291</ele>
        <time>2024-03-09T12:01:57.776Z</time>
      </trkpt>
      <trkpt lat="48.99889" lon="7.78637">
        <ele>190.711789</ele>
        <time>2024-03-09T12:02:08.569Z</time>
      </trkpt>
      <trkpt lat="48.99894" lon="7.78639">
        <ele>190.740576</ele>
        <time>2024-03-09T12:02:10.416Z</time>
      </trkpt>
      <trkpt lat="48.99899" lon="7.78642">
        <ele>190.768575</ele>
        <time>2024-03-09T12:02:11.507Z</time>
      </trkpt>
      <trkpt lat="48.99921" lon="7.78656">
        <ele>190.900295</ele>
        <time>2024-03-09T12:02:16.693Z</time>
      </trkpt>
      <trkpt lat="48.99929" lon="7.78661">
        <ele>190.946079</ele>
        <time>2024-03-09T12:02:19.162Z</time>
      </trkpt>
      <trkpt lat="48.99972" lon="7.78697">
        <ele>191.22326</ele>
        <time>2024-03-09T12:02:31.147Z</time>
      </trkpt>
      <trkpt lat="48.99985" lon="7.78708">
        <ele>191.303772</ele>
        <time>2024-03-09T12:02:34.773Z</time>
      </trkpt>
      <trkpt lat="49.00058" lon="7.78755">
        <ele>191.511429</ele>
        <time>2024-03-09T12:02:56.364Z</time>
      </trkpt>
      <trkpt lat="49.00081" lon="7.78774">
        <ele>191.55631</ele>
        <time>2024-03-09T12:03:01.497Z</time>
      </trkpt>
      <trkpt lat="49.0009" lon="7.78785">
        <ele>191.576907</ele>
        <time>2024-03-09T12:03:05.257Z</time>
      </trkpt>
      <trkpt lat="49.00103" lon="7.78803">
        <ele>191.606138</ele>
        <time>2024-03-09T12:03:08.364Z</time>
      </trkpt>
      <trkpt lat="49.00124" lon="7.78834">
        <ele>191.657616</ele>
        <time>2024-03-09T12:03:15.280Z</time>
      </trkpt>
      <trkpt lat="49.00146" lon="7.78864">
        <ele>191.708334</ele>
        <time>2024-03-09T12:03:21.791Z</time>
      </trkpt>
      <trkpt lat="49.00173" lon="7.789">
        <ele>191.799848</ele>
        <time>2024-03-09T12:03:30.091Z</time>
      </trkpt>
      <trkpt lat="49.00176" lon="7.78905">
        <ele>191.813092</ele>
        <time>2024-03-09T12:03:31.084Z</time>
      </trkpt>
      <trkpt lat="49.00183" lon="7.78919">
        <ele>191.843586</ele>
        <time>2024-03-09T12:03:33.327Z</time>
      </trkpt>
      <trkpt lat="49.00201" lon="7.78924">
        <ele>191.89229</ele>
        <time>2024-03-09T12:03:38.765Z</time>
      </trkpt>
      <trkpt lat="49.00222" lon="7.78936">
        <ele>191.953038</ele>
        <time>2024-03-09T12:03:43.410Z</time>
      </trkpt>
      <trkpt lat="49.00232" lon="7.78941">
        <ele>191.981845</ele>
        <time>2024-03-09T12:03:46.017Z</time>
      </trkpt>
      <trkpt lat="49.00236" lon="7.78943">
        <ele>191.992013</ele>
        <time>2024-03-09T12:03:46.879Z</time>
      </trkpt>
      <trkpt lat="49.00246" lon="7.78948">
        <ele>192.019636</ele>
        <time>2024-03-09T12:03:49.647Z</time>
      </trkpt>
      <trkpt lat="49.00267" lon="7.78959">
        <ele>192.081149</ele>
        <time>2024-03-09T12:03:54.335Z</time>
      </trkpt>
      <trkpt lat="49.00276" lon="7.78963">
        <ele>192.105692</ele>
        <time>2024-03-09T12:03:56.280Z</time>
      </trkpt>
      <trkpt lat="49.00284" lon="7.78967">
        <ele>192.129106</ele>
        <time>2024-03-09T12:03:58.194Z</time>
      </trkpt>
      <trkpt lat="49.00302" lon="7.78976">
        <ele>192.178448</ele>
        <time>2024-03-09T12:04:02.605Z</time>
      </trkpt>
      <trkpt lat="49.00305" lon="7.78977">
        <ele>192.185791</ele>
        <time>2024-03-09T12:04:03.149Z</time>
      </trkpt>
      <trkpt lat="49.00314" lon="7.7898">
        <ele>192.275442</ele>
        <time>2024-03-09T12:04:05.850Z</time>
      </trkpt>
      <trkpt lat="49.00329" lon="7.78985">
        <ele>192.561274</ele>
        <time>2024-03-09T12:04:11.181Z</time>
      </trkpt>
      <trkpt lat="49.00337" lon="7.78988">
        <ele>192.709826</ele>
        <time>2024-03-09T12:04:13.660Z</time>
      </trkpt>
      <trkpt lat="49.00339" lon="7.78989">
        <ele>192.757637</ele>
        <time>2024-03-09T12:04:14.277Z</time>
      </trkpt>
      <trkpt lat="49.00343" lon="7.7899">
        <ele>192.831483</ele>
        <time>2024-03-09T12:04:15.343Z</time>
      </trkpt>
      <trkpt lat="49.00356" lon="7.78994">
        <ele>193.072947</ele>
        <time>2024-03-09T12:04:19.330Z</time>
      </trkpt>
      <trkpt lat="49.00357" lon="7.79002">
        <ele>193.166934</ele>
        <time>2024-03-09T12:04:21.450Z</time>
      </trkpt>
      <trkpt lat="49.00363" lon="7.79006">
        <ele>193.283521</ele>
        <time>2024-03-09T12:04:23.458Z</time>
      </trkpt>
      <trkpt lat="49.00366" lon="7.79005">
        <ele>193.342995</ele>
        <time>2024-03-09T12:04:24.480Z</time>
      </trkpt>
      <trkpt lat="49.0037" lon="7.78997">
        <ele>193.458675</ele>
        <time>2024-03-09T12:04:26.488Z</time>
      </trkpt>
      <trkpt lat="49.00382" lon="7.79001">
        <ele>193.699861</ele>
        <time>2024-03-09T12:04:30.904Z</time>
      </trkpt>
      <trkpt lat="49.00387" lon="7.79002">
        <ele>193.780724</ele>
        <time>2024-03-09T12:04:32.642Z</time>
      </trkpt>
      <trkpt lat="49.00389" lon="7.79003">
        <ele>193.825712</ele>
        <time>2024-03-09T12:04:33.611Z</time>
      </trkpt>
      <trkpt lat="49.00409" lon="7.79008">
        <ele>194.207355</ele>
        <time>2024-03-09T12:04:40.771Z</time>
      </trkpt>
      <trkpt lat="49.00418" lon="7.7901">
        <ele>194.375963</ele>
        <time>2024-03-09T12:04:43.936Z</time>
      </trkpt>
      <trkpt lat="49.00437" lon="7.79014">
        <ele>194.717439</ele>
        <time>2024-03-09T12:04:50.260Z</time>
      </trkpt>
      <trkpt lat="49.00439" lon="7.79014">
        <ele>194.768318</ele>
        <time>2024-03-09T12:04:51.214Z</time>
      </trkpt>
      <trkpt lat="49.00453" lon="7.79017">
        <ele>195.018508</ele>
        <time>2024-03-09T12:04:56.107Z</time>
      </trkpt>
      <trkpt lat="49.00461" lon="7.79017">
        <ele>195.170211</ele>
        <time>2024-03-09T12:04:59.164Z</time>
      </trkpt>
      <trkpt lat="49.00471" lon="7.79014">
        <ele>195.357861</ele>
        <time>2024-03-09T12:05:01.341Z</time>
      </trkpt>
      <trkpt lat="49.00478" lon="7.79013">
        <ele>195.491</ele>
        <time>2024-03-09T12:05:03.540Z</time>
      </trkpt>
      <trkpt lat="49.00508" lon="7.79005">
        <ele>195.61372</ele>
        <time>2024-03-09T12:05:12.426Z</time>
      </trkpt>
      <trkpt lat="49.00519" lon="7.79002">
        <ele>195.646399</ele>
        <time>2024-03-09T12:05:16.129Z</time>
      </trkpt>
      <trkpt lat="49.00527" lon="7.79">
        <ele>195.670808</ele>
        <time>2024-03-09T12:05:18.611Z</time>
      </trkpt>
      <trkpt lat="49.00534" lon="7.78998">
        <ele>195.693497</ele>
        <time>2024-03-09T12:05:21.085Z</time>
      </trkpt>
      <trkpt lat="49.00541" lon="7.78996">
        <ele>195.71555</ele>
        <time>2024-03-09T12:05:22.584Z</time>
      </trkpt>
      <trkpt lat="49.00562" lon="7.78989">
        <ele>195.78183</ele>
        <time>2024-03-09T12:05:28.189Z</time>
      </trkpt>
      <trkpt lat="49.00578" lon="7.78984">
        <ele>195.832263</ele>
        <time>2024-03-09T12:05:31.694Z</time>
      </trkpt>
      <trkpt lat="49.00586" lon="7.78981">
        <ele>195.855928</ele>
        <time>2024-03-09T12:05:33.854Z</time>
      </trkpt>
      <trkpt lat="49.00587" lon="7.78981">
        <ele>195.85993</ele>
        <time>2024-03-09T12:05:34.217Z</time>
      </trkpt>
      <trkpt lat="49.00594" lon="7.78978">
        <ele>195.880583</ele>
        <time>2024-03-09T12:05:35.719Z</time>
      </trkpt>
      <trkpt lat="49.00607" lon="7.78974">
        <ele>195.920478</ele>
        <time>2024-03-09T12:05:38.834Z</time>
      </trkpt>
      <trkpt lat="49.00615" lon="7.78971">
        <ele>195.946055</ele>
        <time>2024-03-09T12:05:40.279Z</time>
      </trkpt>
      <trkpt lat="49.0062" lon="7.7897">
        <ele>195.960632</ele>
        <time>2024-03-09T12:05:41.746Z</time>
      </trkpt>
      <trkpt lat="49.0063" lon="7.78966">
        <ele>195.992709</ele>
        <time>2024-03-09T12:05:44.099Z</time>
      </trkpt>
      <trkpt lat="49.00638" lon="7.78964">
        <ele>196.018244</ele>
        <time>2024-03-09T12:05:45.778Z</time>
      </trkpt>
      <trkpt lat="49.00643" lon="7.78962">
        <ele>196.034772</ele>
        <time>2024-03-09T12:05:46.776Z</time>
      </trkpt>
      <trkpt lat="49.00651" lon="7.78959">
        <ele>196.05848</ele>
        <time>2024-03-09T12:05:48.181Z</time>
      </trkpt>
      <trkpt lat="49.00667" lon="7.78954">
        <ele>196.01672</ele>
        <time>2024-03-09T12:05:51.643Z</time>
      </trkpt>
      <trkpt lat="49.00681" lon="7.78949">
        <ele>195.937393</ele>
        <time>2024-03-09T12:05:54.364Z</time>
      </trkpt>
      <trkpt lat="49.00718" lon="7.7894">
        <ele>195.742944</ele>
        <time>2024-03-09T12:06:01.342Z</time>
      </trkpt>
      <trkpt lat="49.00734" lon="7.78934">
        <ele>195.651693</ele>
        <time>2024-03-09T12:06:04.408Z</time>
      </trkpt>
      <trkpt lat="49.00742" lon="7.78931">
        <ele>195.609844</ele>
        <time>2024-03-09T12:06:06.100Z</time>
      </trkpt>
      <trkpt lat="49.00759" lon="7.78926">
        <ele>195.515852</ele>
        <time>2024-03-09T12:06:09.337Z</time>
      </trkpt>
      <trkpt lat="49.00762" lon="7.78925">
        <ele>195.500668</ele>
        <time>2024-03-09T12:06:09.854Z</time>
      </trkpt>
      <trkpt lat="49.00766" lon="7.78923">
        <ele>195.478373</ele>
        <time>2024-03-09T12:06:10.631Z</time>
      </trkpt>
      <trkpt lat="49.00778" lon="7.78922">
        <ele>195.413523</ele>
        <time>2024-03-09T12:06:13.771Z</time>
      </trkpt>
      <trkpt lat="49.00791" lon="7.78919">
        <ele>195.347836</ele>
        <time>2024-03-09T12:06:16.536Z</time>
      </trkpt>
      <trkpt lat="49.00794" lon="7.78918">
        <ele>195.330429</ele>
        <time>2024-03-09T12:06:17.287Z</time>
      </trkpt>
      <trkpt lat="49.00802" lon="7.78915">
        <ele>195.28421</ele>
        <time>2024-03-09T12:06:19.076Z</time>
      </trkpt>
      <trkpt lat="49.00807" lon="7.78913">
        <ele>195.257027</ele>
        <time>2024-03-09T12:06:20.294Z</time>
      </trkpt>
      <trkpt lat="49.00815" lon="7.78911">
        <ele>195.217401</ele>
        <time>2024-03-09T12:06:22.488Z</time>
      </trkpt>
      <trkpt lat="49.00822" lon="7.78909">
        <ele>195.179404</ele>
        <time>2024-03-09T12:06:26.135Z</time>
      </trkpt>
      <trkpt lat="49.00824" lon="7.78908">
        <ele>195.168515</ele>
        <time>2024-03-09T12:06:26.575Z</time>
      </trkpt>
      <trkpt lat="49.00837" lon="7.78903">
        <ele>195.213635</ele>
        <time>2024-03-09T12:06:29.557Z</time>
      </trkpt>
      <trkpt lat="49.00844" lon="7.78901">
        <ele>195.361239</ele>
        <time>2024-03-09T12:06:31.314Z</time>
      </trkpt>
      <trkpt lat="49.00848" lon="7.789">
        <ele>195.461423</ele>
        <time>2024-03-09T12:06:32.891Z</time>
      </trkpt>
      <trkpt lat="49.00866" lon="7.78892">
        <ele>195.861191</ele>
        <time>2024-03-09T12:06:37.996Z</time>
      </trkpt>
      <trkpt lat="49.00867" lon="7.78891">
        <ele>195.884919</ele>
        <time>2024-03-09T12:06:38.375Z</time>
      </trkpt>
      <trkpt lat="49.0087" lon="7.7889">
        <ele>195.948051</ele>
        <time>2024-03-09T12:06:39.286Z</time>
      </trkpt>
      <trkpt lat="49.00888" lon="7.78885">
        <ele>196.332469</ele>
        <time>2024-03-09T12:06:46.422Z</time>
      </trkpt>
      <trkpt lat="49.009" lon="7.78881">
        <ele>196.591635</ele>
        <time>2024-03-09T12:06:50.637Z</time>
      </trkpt>
      <trkpt lat="49.00902" lon="7.78881">
        <ele>196.626062</ele>
        <time>2024-03-09T12:06:50.879Z</time>
      </trkpt>
      <trkpt lat="49.00923" lon="7.78875">
        <ele>197.080251</ele>
        <time>2024-03-09T12:06:59.041Z</time>
      </trkpt>
      <trkpt lat="49.00924" lon="7.78874">
        <ele>197.103979</ele>
        <time>2024-03-09T12:06:59.910Z</time>
      </trkpt>
      <trkpt lat="49.00927" lon="7.78873">
        <ele>197.182226</ele>
        <time>2024-03-09T12:07:02.201Z</time>
      </trkpt>
      <trkpt lat="49.00941" lon="7.78869">
        <ele>197.478024</ele>
        <time>2024-03-09T12:07:05.265Z</time>
      </trkpt>
      <trkpt lat="49.00957" lon="7.78863">
        <ele>197.829838</ele>
        <time>2024-03-09T12:07:10.877Z</time>
      </trkpt>
      <trkpt lat="49.00961" lon="7.78862">
        <ele>197.924163</ele>
        <time>2024-03-09T12:07:14.087Z</time>
      </trkpt>
      <trkpt lat="49.00967" lon="7.7886">
        <ele>198.041243</ele>
        <time>2024-03-09T12:07:15.738Z</time>
      </trkpt>
      <trkpt lat="49.00969" lon="7.78859">
        <ele>198.092027</ele>
        <time>2024-03-09T12:07:16.193Z</time>
      </trkpt>
      <trkpt lat="49.00975" lon="7.78857">
        <ele>198.218936</ele>
        <time>2024-03-09T12:07:17.304Z</time>
      </trkpt>
      <trkpt lat="49.00991" lon="7.78848">
        <ele>198.589199</ele>
        <time>2024-03-09T12:07:23.470Z</time>
      </trkpt>
      <trkpt lat="49.01" lon="7.78839">
        <ele>198.807043</ele>
        <time>2024-03-09T12:07:28.655Z</time>
      </trkpt>
      <trkpt lat="49.01001" lon="7.78837">
        <ele>198.841826</ele>
        <time>2024-03-09T12:07:29.171Z</time>
      </trkpt>
      <trkpt lat="49.01003" lon="7.78833">
        <ele>198.908925</ele>
        <time>2024-03-09T12:07:29.637Z</time>
      </trkpt>
      <trkpt lat="49.0103" lon="7.78779">
        <ele>200.096008</ele>
        <time>2024-03-09T12:07:45.005Z</time>
      </trkpt>
      <trkpt lat="49.01048" lon="7.78747">
        <ele>200.845277</ele>
        <time>2024-03-09T12:07:54.950Z</time>
      </trkpt>
      <trkpt lat="49.01083" lon="7.78704">
        <ele>202.027747</ele>
        <time>2024-03-09T12:08:10.471Z</time>
      </trkpt>
      <trkpt lat="49.01111" lon="7.78674">
        <ele>202.96392</ele>
        <time>2024-03-09T12:08:22.584Z</time>
      </trkpt>
      <trkpt lat="49.01119" lon="7.78666">
        <ele>203.204403</ele>
        <time>2024-03-09T12:08:24.655Z</time>
      </trkpt>
      <trkpt lat="49.01135" lon="7.78646">
        <ele>203.771133</ele>
        <time>2024-03-09T12:08:35.634Z</time>
      </trkpt>
      <trkpt lat="49.01144" lon="7.78636">
        <ele>204.066891</ele>
        <time>2024-03-09T12:08:38.240Z</time>
      </trkpt>
      <trkpt lat="49.01119" lon="7.78573">
        <ele>205.432554</ele>
        <time>2024-03-09T12:08:57.054Z</time>
      </trkpt>
      <trkpt lat="49.01112" lon="7.78555">
        <ele>205.805793</ele>
        <time>2024-03-09T12:09:04.021Z</time>
      </trkpt>
      <trkpt lat="49.01113" lon="7.78543">
        <ele>206.025763</ele>
        <time>2024-03-09T12:09:05.987Z</time>
      </trkpt>
      <trkpt lat="49.01128" lon="7.78522">
        <ele>206.605326</ele>
        <time>2024-03-09T12:09:14.520Z</time>
      </trkpt>
      <trkpt lat="49.01146" lon="7.78508">
        <ele>207.172943</ele>
        <time>2024-03-09T12:09:21.355Z</time>
      </trkpt>
      <trkpt lat="49.01178" lon="7.78469">
        <ele>208.32272</ele>
        <time>2024-03-09T12:09:35.319Z</time>
      </trkpt>
      <trkpt lat="49.01192" lon="7.78441">
        <ele>208.903205</ele>
        <time>2024-03-09T12:09:43.069Z</time>
      </trkpt>
      <trkpt lat="49.012" lon="7.78416">
        <ele>209.181813</ele>
        <time>2024-03-09T12:09:47.976Z</time>
      </trkpt>
      <trkpt lat="49.0123" lon="7.78358">
        <ele>209.914699</ele>
        <time>2024-03-09T12:10:01.995Z</time>
      </trkpt>
      <trkpt lat="49.01255" lon="7.78296">
        <ele>210.642113</ele>
        <time>2024-03-09T12:10:15.015Z</time>
      </trkpt>
      <trkpt lat="49.01271" lon="7.78247">
        <ele>211.187485</ele>
        <time>2024-03-09T12:10:26.180Z</time>
      </trkpt>
      <trkpt lat="49.01297" lon="7.78143">
        <ele>212.296136</ele>
        <time>2024-03-09T12:10:48.706Z</time>
      </trkpt>
      <trkpt lat="49.01311" lon="7.78039">
        <ele>213.347471</ele>
        <time>2024-03-09T12:11:10.581Z</time>
      </trkpt>
      <trkpt lat="49.0133" lon="7.77929">
        <ele>213.88869</ele>
        <time>2024-03-09T12:11:33.272Z</time>
      </trkpt>
      <trkpt lat="49.01343" lon="7.77857">
        <ele>212.565889</ele>
        <time>2024-03-09T12:11:43.606Z</time>
      </trkpt>
      <trkpt lat="49.01353" lon="7.77832">
        <ele>212.054682</ele>
        <time>2024-03-09T12:11:47.025Z</time>
      </trkpt>
      <trkpt lat="49.01378" lon="7.77801">
        <ele>211.186793</ele>
        <time>2024-03-09T12:11:52.258Z</time>
      </trkpt>
      <trkpt lat="49.01429" lon="7.77757">
        <ele>209.581022</ele>
        <time>2024-03-09T12:12:01.580Z</time>
      </trkpt>
      <trkpt lat="49.01442" lon="7.77753">
        <ele>209.166539</ele>
        <time>2024-03-09T12:12:03.634Z</time>
      </trkpt>
      <trkpt lat="49.01458" lon="7.77761">
        <ele>208.585596</ele>
        <time>2024-03-09T12:12:06.219Z</time>
      </trkpt>
      <trkpt lat="49.01475" lon="7.77776">
        <ele>207.878717</ele>
        <time>2024-03-09T12:12:09.377Z</time>
      </trkpt>
      <trkpt lat="49.01493" lon="7.7781">
        <ele>206.867563</ele>
        <time>2024-03-09T12:12:13.965Z</time>
      </trkpt>
      <trkpt lat="49.01507" lon="7.77844">
        <ele>205.935065</ele>
        <time>2024-03-09T12:12:18.328Z</time>
      </trkpt>
      <trkpt lat="49.01518" lon="7.77912">
        <ele>204.308915</ele>
        <time>2024-03-09T12:12:26.155Z</time>
      </trkpt>
      <trkpt lat="49.01531" lon="7.78031">
        <ele>203.457362</ele>
        <time>2024-03-09T12:12:41.260Z</time>
      </trkpt>
      <trkpt lat="49.01538" lon="7.78057">
        <ele>203.644877</ele>
        <time>2024-03-09T12:12:45.547Z</time>
      </trkpt>
      <trkpt lat="49.01549" lon="7.78078">
        <ele>203.823114</ele>
        <time>2024-03-09T12:12:49.995Z</time>
      </trkpt>
      <trkpt lat="49.01565" lon="7.78093">
        <ele>204.013538</ele>
        <time>2024-03-09T12:12:55.353Z</time>
      </trkpt>
      <trkpt lat="49.01583" lon="7.78094">
        <ele>204.196453</ele>
        <time>2024-03-09T12:13:00.868Z</time>
      </trkpt>
      <trkpt lat="49.01601" lon="7.7809">
        <ele>204.386594</ele>
        <time>2024-03-09T12:13:07.070Z</time>
      </trkpt>
      <trkpt lat="49.0161" lon="7.78082">
        <ele>204.490954</ele>
        <time>2024-03-09T12:13:10.885Z</time>
      </trkpt>
      <trkpt lat="49.01617" lon="7.78071">
        <ele>204.595426</ele>
        <time>2024-03-09T12:13:14.674Z</time>
      </trkpt>
      <trkpt lat="49.01623" lon="7.78047">
        <ele>204.769184</ele>
        <time>2024-03-09T12:13:21.233Z</time>
      </trkpt>
      <trkpt lat="49.01628" lon="7.78021">
        <ele>205.140336</ele>
        <time>2024-03-09T12:13:28.318Z</time>
      </trkpt>
      <trkpt lat="49.01629" lon="7.77952">
        <ele>206.627213</ele>
        <time>2024-03-09T12:13:46.545Z</time>
      </trkpt>
      <trkpt lat="49.01629" lon="7.77907">
        <ele>207.600696</ele>
        <time>2024-03-09T12:13:58.595Z</time>
      </trkpt>
      <trkpt lat="49.01627" lon="7.77885">
        <ele>208.08794</ele>
        <time>2024-03-09T12:14:04.169Z</time>
      </trkpt>
      <trkpt lat="49.01646" lon="7.77857">
        <ele>208.954471</ele>
        <time>2024-03-09T12:14:14.363Z</time>
      </trkpt>
      <trkpt lat="49.01667" lon="7.7784">
        <ele>209.751069</ele>
        <time>2024-03-09T12:14:23.743Z</time>
      </trkpt>
      <trkpt lat="49.01707" lon="7.77828">
        <ele>210.916276</ele>
        <time>2024-03-09T12:14:38.755Z</time>
      </trkpt>
      <trkpt lat="49.01737" lon="7.7783">
        <ele>211.415981</ele>
        <time>2024-03-09T12:14:49.939Z</time>
      </trkpt>
      <trkpt lat="49.01769" lon="7.77837">
        <ele>211.967482</ele>
        <time>2024-03-09T12:15:01.630Z</time>
      </trkpt>
      <trkpt lat="49.01828" lon="7.77829">
        <ele>212.942753</ele>
        <time>2024-03-09T12:15:19.734Z</time>
      </trkpt>
      <trkpt lat="49.01841" lon="7.77822">
        <ele>213.185004</ele>
        <time>2024-03-09T12:15:23.758Z</time>
      </trkpt>
      <trkpt lat="49.01905" lon="7.77748">
        <ele>213.422225</ele>
        <time>2024-03-09T12:15:40.872Z</time>
      </trkpt>
      <trkpt lat="49.01921" lon="7.77716">
        <ele>213.228289</ele>
        <time>2024-03-09T12:15:46.161Z</time>
      </trkpt>
      <trkpt lat="49.01937" lon="7.77678">
        <ele>213.012774</ele>
        <time>2024-03-09T12:15:52.127Z</time>
      </trkpt>
      <trkpt lat="49.01952" lon="7.77631">
        <ele>212.757213</ele>
        <time>2024-03-09T12:15:59.180Z</time>
      </trkpt>
      <trkpt lat="49.01958" lon="7.77601">
        <ele>212.607373</ele>
        <time>2024-03-09T12:16:03.182Z</time>
      </trkpt>
      <trkpt lat="49.01958" lon="7.77562">
        <ele>212.403122</ele>
        <time>2024-03-09T12:16:08.232Z</time>
      </trkpt>
      <trkpt lat="49.01963" lon="7.77506">
        <ele>211.906919</ele>
        <time>2024-03-09T12:16:15.291Z</time>
      </trkpt>
      <trkpt lat="49.01998" lon="7.77396">
        <ele>210.8235</ele>
        <time>2024-03-09T12:16:30.075Z</time>
      </trkpt>
      <trkpt lat="49.02035" lon="7.77322">
        <ele>210.013545</ele>
        <time>2024-03-09T12:16:41.942Z</time>
      </trkpt>
      <trkpt lat="49.02046" lon="7.77315">
        <ele>210.150968</ele>
        <time>2024-03-09T12:16:44.452Z</time>
      </trkpt>
      <trkpt lat="49.02065" lon="7.77285">
        <ele>210.472338</ele>
        <time>2024-03-09T12:16:50.330Z</time>
      </trkpt>
      <trkpt lat="49.02119" lon="7.77221">
        <ele>211.276444</ele>
        <time>2024-03-09T12:17:06.809Z</time>
      </trkpt>
      <trkpt lat="49.02185" lon="7.77124">
        <ele>212.801984</ele>
        <time>2024-03-09T12:17:39.037Z</time>
      </trkpt>
      <trkpt lat="49.02234" lon="7.77024">
        <ele>215.694188</ele>
        <time>2024-03-09T12:18:18.943Z</time>
      </trkpt>
      <trkpt lat="49.02253" lon="7.76991">
        <ele>216.68738</ele>
        <time>2024-03-09T12:18:31.200Z</time>
      </trkpt>
      <trkpt lat="49.02284" lon="7.76944">
        <ele>218.237935</ele>
        <time>2024-03-09T12:18:47.256Z</time>
      </trkpt>
      <trkpt lat="49.02313" lon="7.76911">
        <ele>218.105471</ele>
        <time>2024-03-09T12:18:56.947Z</time>
      </trkpt>
      <trkpt lat="49.02326" lon="7.76901">
        <ele>217.943166</ele>
        <time>2024-03-09T12:19:00.271Z</time>
      </trkpt>
      <trkpt lat="49.02348" lon="7.76898">
        <ele>217.701597</ele>
        <time>2024-03-09T12:19:04.654Z</time>
      </trkpt>
      <trkpt lat="49.02397" lon="7.76905">
        <ele>217.159985</ele>
        <time>2024-03-09T12:19:13.899Z</time>
      </trkpt>
      <trkpt lat="49.0242" lon="7.76916">
        <ele>216.892839</ele>
        <time>2024-03-09T12:19:18.269Z</time>
      </trkpt>
      <trkpt lat="49.02446" lon="7.76937">
        <ele>216.560135</ele>
        <time>2024-03-09T12:19:23.565Z</time>
      </trkpt>
      <trkpt lat="49.02497" lon="7.76964">
        <ele>215.764807</ele>
        <time>2024-03-09T12:19:32.597Z</time>
      </trkpt>
      <trkpt lat="49.02554" lon="7.7699">
        <ele>214.848489</ele>
        <time>2024-03-09T12:19:42.832Z</time>
      </trkpt>
      <trkpt lat="49.02612" lon="7.76997">
        <ele>213.945196</ele>
        <time>2024-03-09T12:19:55.771Z</time>
      </trkpt>
      <trkpt lat="49.02626" lon="7.7701">
        <ele>213.676625</ele>
        <time>2024-03-09T12:19:59.337Z</time>
      </trkpt>
      <trkpt lat="49.02682" lon="7.76948">
        <ele>214.273426</ele>
        <time>2024-03-09T12:20:20.533Z</time>
      </trkpt>
      <trkpt lat="49.02745" lon="7.76845">
        <ele>215.119915</ele>
        <time>2024-03-09T12:20:46.718Z</time>
      </trkpt>
      <trkpt lat="49.02776" lon="7.76785">
        <ele>215.119977</ele>
        <time>2024-03-09T12:20:58.285Z</time>
      </trkpt>
      <trkpt lat="49.02806" lon="7.76741">
        <ele>214.861684</ele>
        <time>2024-03-09T12:21:06.305Z</time>
      </trkpt>
      <trkpt lat="49.0286" lon="7.76685">
        <ele>214.453325</ele>
        <time>2024-03-09T12:21:19.304Z</time>
      </trkpt>
      <trkpt lat="49.02935" lon="7.76636">
        <ele>214.320015</ele>
        <time>2024-03-09T12:21:36.189Z</time>
      </trkpt>
      <trkpt lat="49.02956" lon="7.76615">
        <ele>214.404566</ele>
        <time>2024-03-09T12:21:41.449Z</time>
      </trkpt>
      <trkpt lat="49.02971" lon="7.76586">
        <ele>214.487723</ele>
        <time>2024-03-09T12:21:46.781Z</time>
      </trkpt>
      <trkpt lat="49.03043" lon="7.76423">
        <ele>215.176072</ele>
        <time>2024-03-09T12:22:22.466Z</time>
      </trkpt>
      <trkpt lat="49.031" lon="7.76282">
        <ele>216.280537</ele>
        <time>2024-03-09T12:22:52.668Z</time>
      </trkpt>
      <trkpt lat="49.03114" lon="7.76247">
        <ele>216.549565</ele>
        <time>2024-03-09T12:22:59.947Z</time>
      </trkpt>
      <trkpt lat="49.03131" lon="7.76193">
        <ele>216.742685</ele>
        <time>2024-03-09T12:23:09.808Z</time>
      </trkpt>
      <trkpt lat="49.0314" lon="7.7614">
        <ele>216.871717</ele>
        <time>2024-03-09T12:23:18.892Z</time>
      </trkpt>
      <trkpt lat="49.03149" lon="7.76058">
        <ele>217.069518</ele>
        <time>2024-03-09T12:23:32.800Z</time>
      </trkpt>
      <trkpt lat="49.03151" lon="7.76004">
        <ele>217.19628</ele>
        <time>2024-03-09T12:23:40.437Z</time>
      </trkpt>
      <trkpt lat="49.03148" lon="7.75869">
        <ele>217.490978</ele>
        <time>2024-03-09T12:23:59.399Z</time>
      </trkpt>
      <trkpt lat="49.03154" lon="7.75768">
        <ele>217.706378</ele>
        <time>2024-03-09T12:24:15.145Z</time>
      </trkpt>
      <trkpt lat="49.0316" lon="7.7571">
        <ele>217.831552</ele>
        <time>2024-03-09T12:24:24.617Z</time>
      </trkpt>
      <trkpt lat="49.03208" lon="7.75432">
        <ele>220.303356</ele>
        <time>2024-03-09T12:25:21.852Z</time>
      </trkpt>
      <trkpt lat="49.03233" lon="7.75301">
        <ele>220.02641</ele>
        <time>2024-03-09T12:25:43.304Z</time>
      </trkpt>
      <trkpt lat="49.03236" lon="7.75278">
        <ele>219.978355</ele>
        <time>2024-03-09T12:25:46.514Z</time>
      </trkpt>
      <trkpt lat="49.03236" lon="7.75254">
        <ele>219.930998</ele>
        <time>2024-03-09T12:25:49.573Z</time>
      </trkpt>
      <trkpt lat="49.03233" lon="7.75205">
        <ele>219.830219</ele>
        <time>2024-03-09T12:25:55.901Z</time>
      </trkpt>
      <trkpt lat="49.0322" lon="7.75081">
        <ele>219.232172</ele>
        <time>2024-03-09T12:26:11.374Z</time>
      </trkpt>
      <trkpt lat="49.03202" lon="7.74942">
        <ele>218.368342</ele>
        <time>2024-03-09T12:26:29.499Z</time>
      </trkpt>
      <trkpt lat="49.03188" lon="7.74913">
        <ele>218.148772</ele>
        <time>2024-03-09T12:26:34.518Z</time>
      </trkpt>
      <trkpt lat="49.03133" lon="7.7483">
        <ele>218.806741</ele>
        <time>2024-03-09T12:26:54.960Z</time>
      </trkpt>
      <trkpt lat="49.03117" lon="7.74797">
        <ele>219.087454</ele>
        <time>2024-03-09T12:27:03.702Z</time>
      </trkpt>
      <trkpt lat="49.03078" lon="7.74719">
        <ele>219.761964</ele>
        <time>2024-03-09T12:27:22.611Z</time>
      </trkpt>
      <trkpt lat="49.03035" lon="7.74613">
        <ele>220.436661</ele>
        <time>2024-03-09T12:27:45.536Z</time>
      </trkpt>
      <trkpt lat="49.02992" lon="7.74496">
        <ele>221.099466</ele>
        <time>2024-03-09T12:28:08.985Z</time>
      </trkpt>
      <trkpt lat="49.02971" lon="7.74413">
        <ele>221.042526</ele>
        <time>2024-03-09T12:28:22.506Z</time>
      </trkpt>
      <trkpt lat="49.0297" lon="7.74373">
        <ele>220.795138</ele>
        <time>2024-03-09T12:28:27.506Z</time>
      </trkpt>
      <trkpt lat="49.02977" lon="7.7431">
        <ele>220.394421</ele>
        <time>2024-03-09T12:28:35.472Z</time>
      </trkpt>
      <trkpt lat="49.02988" lon="7.74245">
        <ele>219.971343</ele>
        <time>2024-03-09T12:28:43.940Z</time>
      </trkpt>
      <trkpt lat="49.03017" lon="7.74108">
        <ele>218.963522</ele>
        <time>2024-03-09T12:29:02.649Z</time>
      </trkpt>
      <trkpt lat="49.0302" lon="7.74075">
        <ele>218.72112</ele>
        <time>2024-03-09T12:29:06.687Z</time>
      </trkpt>
      <trkpt lat="49.03018" lon="7.74038">
        <ele>218.441254</ele>
        <time>2024-03-09T12:29:11.323Z</time>
      </trkpt>
      <trkpt lat="49.03014" lon="7.74018">
        <ele>218.283355</ele>
        <time>2024-03-09T12:29:13.897Z</time>
      </trkpt>
      <trkpt lat="49.02989" lon="7.73954">
        <ele>217.725785</ele>
        <time>2024-03-09T12:29:23.175Z</time>
      </trkpt>
      <trkpt lat="49.02983" lon="7.73941">
        <ele>217.612045</ele>
        <time>2024-03-09T12:29:25.158Z</time>
      </trkpt>
      <trkpt lat="49.02905" lon="7.73773">
        <ele>218.111466</ele>
        <time>2024-03-09T12:29:57.269Z</time>
      </trkpt>
      <trkpt lat="49.02832" lon="7.73618">
        <ele>219.536636</ele>
        <time>2024-03-09T12:30:33.884Z</time>
      </trkpt>
      <trkpt lat="49.0273" lon="7.73352">
        <ele>222.821909</ele>
        <time>2024-03-09T12:31:37.113Z</time>
      </trkpt>
      <trkpt lat="49.02726" lon="7.73338">
        <ele>222.982977</ele>
        <time>2024-03-09T12:31:39.188Z</time>
      </trkpt>
      <trkpt lat="49.02716" lon="7.73286">
        <ele>223.575701</ele>
        <time>2024-03-09T12:31:52.072Z</time>
      </trkpt>
      <trkpt lat="49.02716" lon="7.73248">
        <ele>223.984455</ele>
        <time>2024-03-09T12:32:01.331Z</time>
      </trkpt>
      <trkpt lat="49.02718" lon="7.73233">
        <ele>224.141892</ele>
        <time>2024-03-09T12:32:03.303Z</time>
      </trkpt>
      <trkpt lat="49.02735" lon="7.73188">
        <ele>224.18095</ele>
        <time>2024-03-09T12:32:12.522Z</time>
      </trkpt>
      <trkpt lat="49.02738" lon="7.73181">
        <ele>224.18163</ele>
        <time>2024-03-09T12:32:13.320Z</time>
      </trkpt>
      <trkpt lat="49.02747" lon="7.73161">
        <ele>224.183691</ele>
        <time>2024-03-09T12:32:18.280Z</time>
      </trkpt>
      <trkpt lat="49.02758" lon="7.73134">
        <ele>224.186376</ele>
        <time>2024-03-09T12:32:22.024Z</time>
      </trkpt>
      <trkpt lat="49.02766" lon="7.73103">
        <ele>224.189181</ele>
        <time>2024-03-09T12:32:28.690Z</time>
      </trkpt>
      <trkpt lat="49.02769" lon="7.73073">
        <ele>224.191732</ele>
        <time>2024-03-09T12:32:32.241Z</time>
      </trkpt>
      <trkpt lat="49.02768" lon="7.73045">
        <ele>224.194109</ele>
        <time>2024-03-09T12:32:37.195Z</time>
      </trkpt>
      <trkpt lat="49.02767" lon="7.73032">
        <ele>224.195256</ele>
        <time>2024-03-09T12:32:38.671Z</time>
      </trkpt>
      <trkpt lat="49.02756" lon="7.72926">
        <ele>223.977442</ele>
        <time>2024-03-09T12:32:55.310Z</time>
      </trkpt>
      <trkpt lat="49.02743" lon="7.7273">
        <ele>223.136806</ele>
        <time>2024-03-09T12:33:21.111Z</time>
      </trkpt>
      <trkpt lat="49.02744" lon="7.72679">
        <ele>223.036689</ele>
        <time>2024-03-09T12:33:27.855Z</time>
      </trkpt>
      <trkpt lat="49.02753" lon="7.72621">
        <ele>223.054681</ele>
        <time>2024-03-09T12:33:36.315Z</time>
      </trkpt>
      <trkpt lat="49.02789" lon="7.72451">
        <ele>223.108186</ele>
        <time>2024-03-09T12:34:04.031Z</time>
      </trkpt>
      <trkpt lat="49.02809" lon="7.72384">
        <ele>223.655281</ele>
        <time>2024-03-09T12:34:16.245Z</time>
      </trkpt>
      <trkpt lat="49.0282" lon="7.72356">
        <ele>223.935338</ele>
        <time>2024-03-09T12:34:21.682Z</time>
      </trkpt>
      <trkpt lat="49.02859" lon="7.72275">
        <ele>224.795765</ele>
        <time>2024-03-09T12:34:38.838Z</time>
      </trkpt>
      <trkpt lat="49.02913" lon="7.7215">
        <ele>226.526037</ele>
        <time>2024-03-09T12:35:14.425Z</time>
      </trkpt>
      <trkpt lat="49.02957" lon="7.72067">
        <ele>228.089369</ele>
        <time>2024-03-09T12:35:38.249Z</time>
      </trkpt>
      <trkpt lat="49.02966" lon="7.72037">
        <ele>228.582908</ele>
        <time>2024-03-09T12:35:47.414Z</time>
      </trkpt>
      <trkpt lat="49.02969" lon="7.72019">
        <ele>228.85672</ele>
        <time>2024-03-09T12:35:49.826Z</time>
      </trkpt>
      <trkpt lat="49.02976" lon="7.71807">
        <ele>229.931278</ele>
        <time>2024-03-09T12:36:31.264Z</time>
      </trkpt>
      <trkpt lat="49.02977" lon="7.71775">
        <ele>230.012852</ele>
        <time>2024-03-09T12:36:35.161Z</time>
      </trkpt>
      <trkpt lat="49.02976" lon="7.71751">
        <ele>230.073977</ele>
        <time>2024-03-09T12:36:38.378Z</time>
      </trkpt>
      <trkpt lat="49.02975" lon="7.71733">
        <ele>230.119843</ele>
        <time>2024-03-09T12:36:40.599Z</time>
      </trkpt>
      <trkpt lat="49.02973" lon="7.71712">
        <ele>230.172608</ele>
        <time>2024-03-09T12:36:43.150Z</time>
      </trkpt>
      <trkpt lat="49.0296" lon="7.71637">
        <ele>229.908053</ele>
        <time>2024-03-09T12:36:53.232Z</time>
      </trkpt>
      <trkpt lat="49.02951" lon="7.71534">
        <ele>229.451443</ele>
        <time>2024-03-09T12:37:06.804Z</time>
      </trkpt>
      <trkpt lat="49.0295" lon="7.71518">
        <ele>229.378302</ele>
        <time>2024-03-09T12:37:09.324Z</time>
      </trkpt>
      <trkpt lat="49.0295" lon="7.71475">
        <ele>229.188469</ele>
        <time>2024-03-09T12:37:15.046Z</time>
      </trkpt>
      <trkpt lat="49.02952" lon="7.71444">
        <ele>229.052528</ele>
        <time>2024-03-09T12:37:20.338Z</time>
      </trkpt>
      <trkpt lat="49.02961" lon="7.7139">
        <ele>229.095068</ele>
        <time>2024-03-09T12:37:29.232Z</time>
      </trkpt>
      <trkpt lat="49.02963" lon="7.71384">
        <ele>229.109048</ele>
        <time>2024-03-09T12:37:29.820Z</time>
      </trkpt>
      <trkpt lat="49.02965" lon="7.71374">
        <ele>229.135432</ele>
        <time>2024-03-09T12:37:32.115Z</time>
      </trkpt>
      <trkpt lat="49.0299" lon="7.71278">
        <ele>229.380022</ele>
        <time>2024-03-09T12:37:47.147Z</time>
      </trkpt>
      <trkpt lat="49.02999" lon="7.71254">
        <ele>229.446312</ele>
        <time>2024-03-09T12:37:53.435Z</time>
      </trkpt>
      <trkpt lat="49.03015" lon="7.71199">
        <ele>229.587943</ele>
        <time>2024-03-09T12:38:04.141Z</time>
      </trkpt>
      <trkpt lat="49.03018" lon="7.71184">
        <ele>229.625038</ele>
        <time>2024-03-09T12:38:05.883Z</time>
      </trkpt>
      <trkpt lat="49.03025" lon="7.71161">
        <ele>229.770915</ele>
        <time>2024-03-09T12:38:10.403Z</time>
      </trkpt>
      <trkpt lat="49.03031" lon="7.71148">
        <ele>229.881341</ele>
        <time>2024-03-09T12:38:13.392Z</time>
      </trkpt>
      <trkpt lat="49.0304" lon="7.71133">
        <ele>230.022154</ele>
        <time>2024-03-09T12:38:15.765Z</time>
      </trkpt>
      <trkpt lat="49.03051" lon="7.71116">
        <ele>230.196188</ele>
        <time>2024-03-09T12:38:20.814Z</time>
      </trkpt>
      <trkpt lat="49.0307" lon="7.71094">
        <ele>230.458957</ele>
        <time>2024-03-09T12:38:26.386Z</time>
      </trkpt>
      <trkpt lat="49.03082" lon="7.71086">
        <ele>230.602391</ele>
        <time>2024-03-09T12:38:30.778Z</time>
      </trkpt>
      <trkpt lat="49.03094" lon="7.7108">
        <ele>230.736298</ele>
        <time>2024-03-09T12:38:33.461Z</time>
      </trkpt>
      <trkpt lat="49.03097" lon="7.71079">
        <ele>230.769202</ele>
        <time>2024-03-09T12:38:34.035Z</time>
      </trkpt>
      <trkpt lat="49.0316" lon="7.71056">
        <ele>231.471601</ele>
        <time>2024-03-09T12:38:51.518Z</time>
      </trkpt>
      <trkpt lat="49.03172" lon="7.71049">
        <ele>231.634234</ele>
        <time>2024-03-09T12:38:55.733Z</time>
      </trkpt>
      <trkpt lat="49.03184" lon="7.71039">
        <ele>231.953744</ele>
        <time>2024-03-09T12:39:02.280Z</time>
      </trkpt>
      <trkpt lat="49.03193" lon="7.71028">
        <ele>232.242137</ele>
        <time>2024-03-09T12:39:07.256Z</time>
      </trkpt>
      <trkpt lat="49.03211" lon="7.70995">
        <ele>232.932762</ele>
        <time>2024-03-09T12:39:18.877Z</time>
      </trkpt>
      <trkpt lat="49.03213" lon="7.70991">
        <ele>233.000592</ele>
        <time>2024-03-09T12:39:20.085Z</time>
      </trkpt>
      <trkpt lat="49.03218" lon="7.7098">
        <ele>233.209394</ele>
        <time>2024-03-09T12:39:21.985Z</time>
      </trkpt>
      <trkpt lat="49.0324" lon="7.70929">
        <ele>234.190946</ele>
        <time>2024-03-09T12:39:35.665Z</time>
      </trkpt>
      <trkpt lat="49.03241" lon="7.70927">
        <ele>234.2363</ele>
        <time>2024-03-09T12:39:36.365Z</time>
      </trkpt>
      <trkpt lat="49.03244" lon="7.70919">
        <ele>234.378635</ele>
        <time>2024-03-09T12:39:38.657Z</time>
      </trkpt>
      <trkpt lat="49.03249" lon="7.70905">
        <ele>234.632689</ele>
        <time>2024-03-09T12:39:42.758Z</time>
      </trkpt>
      <trkpt lat="49.03256" lon="7.70883">
        <ele>235.012674</ele>
        <time>2024-03-09T12:39:46.613Z</time>
      </trkpt>
      <trkpt lat="49.03265" lon="7.70847">
        <ele>235.63568</ele>
        <time>2024-03-09T12:39:56.548Z</time>
      </trkpt>
      <trkpt lat="49.03274" lon="7.70767">
        <ele>236.900677</ele>
        <time>2024-03-09T12:40:12.825Z</time>
      </trkpt>
      <trkpt lat="49.03284" lon="7.70694">
        <ele>238.048563</ele>
        <time>2024-03-09T12:40:30.173Z</time>
      </trkpt>
      <trkpt lat="49.03301" lon="7.70633">
        <ele>239.080477</ele>
        <time>2024-03-09T12:40:46.866Z</time>
      </trkpt>
      <trkpt lat="49.03317" lon="7.70598">
        <ele>239.741662</ele>
        <time>2024-03-09T12:40:53.885Z</time>
      </trkpt>
      <trkpt lat="49.03353" lon="7.70534">
        <ele>240.981863</ele>
        <time>2024-03-09T12:41:12.258Z</time>
      </trkpt>
      <trkpt lat="49.03377" lon="7.70472">
        <ele>242.015074</ele>
        <time>2024-03-09T12:41:30.886Z</time>
      </trkpt>
      <trkpt lat="49.03386" lon="7.70439">
        <ele>242.515202</ele>
        <time>2024-03-09T12:41:40.077Z</time>
      </trkpt>
      <trkpt lat="49.03387" lon="7.70426">
        <ele>242.706688</ele>
        <time>2024-03-09T12:41:42.849Z</time>
      </trkpt>
      <trkpt lat="49.03394" lon="7.70276">
        <ele>243.619787</ele>
        <time>2024-03-09T12:42:12.567Z</time>
      </trkpt>
      <trkpt lat="49.0339" lon="7.70146">
        <ele>242.262626</ele>
        <time>2024-03-09T12:42:28.619Z</time>
      </trkpt>
      <trkpt lat="49.03391" lon="7.70096">
        <ele>241.752783</ele>
        <time>2024-03-09T12:42:34.151Z</time>
      </trkpt>
      <trkpt lat="49.03397" lon="7.7005">
        <ele>241.235795</ele>
        <time>2024-03-09T12:42:39.389Z</time>
      </trkpt>
      <trkpt lat="49.0341" lon="7.69994">
        <ele>240.249837</ele>
        <time>2024-03-09T12:42:45.803Z</time>
      </trkpt>
      <trkpt lat="49.03418" lon="7.69964">
        <ele>239.715542</ele>
        <time>2024-03-09T12:42:49.284Z</time>
      </trkpt>
      <trkpt lat="49.03437" lon="7.69916">
        <ele>238.779546</ele>
        <time>2024-03-09T12:42:55.600Z</time>
      </trkpt>
      <trkpt lat="49.03479" lon="7.69804">
        <ele>236.741993</ele>
        <time>2024-03-09T12:43:11.511Z</time>
      </trkpt>
      <trkpt lat="49.03487" lon="7.69773">
        <ele>236.761677</ele>
        <time>2024-03-09T12:43:15.957Z</time>
      </trkpt>
      <trkpt lat="49.0349" lon="7.69748">
        <ele>236.776329</ele>
        <time>2024-03-09T12:43:19.716Z</time>
      </trkpt>
      <trkpt lat="49.03492" lon="7.69714">
        <ele>236.796496</ele>
        <time>2024-03-09T12:43:24.591Z</time>
      </trkpt>
      <trkpt lat="49.03492" lon="7.69628">
        <ele>236.846834</ele>
        <time>2024-03-09T12:43:38.999Z</time>
      </trkpt>
      <trkpt lat="49.03493" lon="7.69587">
        <ele>236.871043</ele>
        <time>2024-03-09T12:43:46.086Z</time>
      </trkpt>
      <trkpt lat="49.03498" lon="7.69559">
        <ele>236.888557</ele>
        <time>2024-03-09T12:43:50.658Z</time>
      </trkpt>
      <trkpt lat="49.03504" lon="7.69538">
        <ele>236.918917</ele>
        <time>2024-03-09T12:43:54.447Z</time>
      </trkpt>
      <trkpt lat="49.03529" lon="7.6949">
        <ele>237.255654</ele>
        <time>2024-03-09T12:44:04.210Z</time>
      </trkpt>
      <trkpt lat="49.0353" lon="7.69487">
        <ele>237.275398</ele>
        <time>2024-03-09T12:44:04.718Z</time>
      </trkpt>
      <trkpt lat="49.03542" lon="7.69449">
        <ele>237.505112</ele>
        <time>2024-03-09T12:44:11.809Z</time>
      </trkpt>
      <trkpt lat="49.03549" lon="7.69401">
        <ele>237.771578</ele>
        <time>2024-03-09T12:44:20.108Z</time>
      </trkpt>
      <trkpt lat="49.03551" lon="7.69369">
        <ele>237.949217</ele>
        <time>2024-03-09T12:44:25.781Z</time>
      </trkpt>
      <trkpt lat="49.03554" lon="7.69338">
        <ele>238.1216</ele>
        <time>2024-03-09T12:44:31.941Z</time>
      </trkpt>
      <trkpt lat="49.03559" lon="7.69291">
        <ele>238.385441</ele>
        <time>2024-03-09T12:44:41.117Z</time>
      </trkpt>
      <trkpt lat="49.0356" lon="7.69274">
        <ele>238.461876</ele>
        <time>2024-03-09T12:44:43.957Z</time>
      </trkpt>
      <trkpt lat="49.03561" lon="7.6926">
        <ele>238.525803</ele>
        <time>2024-03-09T12:44:46.691Z</time>
      </trkpt>
      <trkpt lat="49.03564" lon="7.69239">
        <ele>238.61983</ele>
        <time>2024-03-09T12:44:50.858Z</time>
      </trkpt>
      <trkpt lat="49.0357" lon="7.69123">
        <ele>239.136074</ele>
        <time>2024-03-09T12:45:10.029Z</time>
      </trkpt>
      <trkpt lat="49.03574" lon="7.69089">
        <ele>239.288366</ele>
        <time>2024-03-09T12:45:15.760Z</time>
      </trkpt>
      <trkpt lat="49.03575" lon="7.69084">
        <ele>239.309103</ele>
        <time>2024-03-09T12:45:16.475Z</time>
      </trkpt>
      <trkpt lat="49.0358" lon="7.69034">
        <ele>239.532627</ele>
        <time>2024-03-09T12:45:24.862Z</time>
      </trkpt>
      <trkpt lat="49.03581" lon="7.69023">
        <ele>239.581387</ele>
        <time>2024-03-09T12:45:26.409Z</time>
      </trkpt>
      <trkpt lat="49.03582" lon="7.69012">
        <ele>239.616277</ele>
        <time>2024-03-09T12:45:28.053Z</time>
      </trkpt>
      <trkpt lat="49.03585" lon="7.68984">
        <ele>239.605959</ele>
        <time>2024-03-09T12:45:32.761Z</time>
      </trkpt>
      <trkpt lat="49.03588" lon="7.68943">
        <ele>239.591161</ele>
        <time>2024-03-09T12:45:38.805Z</time>
      </trkpt>
      <trkpt lat="49.03577" lon="7.68871">
        <ele>239.564813</ele>
        <time>2024-03-09T12:45:48.931Z</time>
      </trkpt>
      <trkpt lat="49.03579" lon="7.68849">
        <ele>239.55687</ele>
        <time>2024-03-09T12:45:51.789Z</time>
      </trkpt>
      <trkpt lat="49.03583" lon="7.68831">
        <ele>239.549912</ele>
        <time>2024-03-09T12:45:54.538Z</time>
      </trkpt>
      <trkpt lat="49.03597" lon="7.68776">
        <ele>239.528698</ele>
        <time>2024-03-09T12:46:02.902Z</time>
      </trkpt>
      <trkpt lat="49.03602" lon="7.68734">
        <ele>239.645997</ele>
        <time>2024-03-09T12:46:09.149Z</time>
      </trkpt>
      <trkpt lat="49.03605" lon="7.68691">
        <ele>240.01706</ele>
        <time>2024-03-09T12:46:16.537Z</time>
      </trkpt>
      <trkpt lat="49.03611" lon="7.68647">
        <ele>240.400476</ele>
        <time>2024-03-09T12:46:24.856Z</time>
      </trkpt>
      <trkpt lat="49.03615" lon="7.6863">
        <ele>240.562557</ele>
        <time>2024-03-09T12:46:28.755Z</time>
      </trkpt>
      <trkpt lat="49.03617" lon="7.68625">
        <ele>240.607248</ele>
        <time>2024-03-09T12:46:29.698Z</time>
      </trkpt>
      <trkpt lat="49.03621" lon="7.68609">
        <ele>240.752295</ele>
        <time>2024-03-09T12:46:32.711Z</time>
      </trkpt>
      <trkpt lat="49.03628" lon="7.68579">
        <ele>241.025657</ele>
        <time>2024-03-09T12:46:39.001Z</time>
      </trkpt>
      <trkpt lat="49.03644" lon="7.68514">
        <ele>241.620018</ele>
        <time>2024-03-09T12:46:53.253Z</time>
      </trkpt>
      <trkpt lat="49.03645" lon="7.68512">
        <ele>241.637548</ele>
        <time>2024-03-09T12:46:53.655Z</time>
      </trkpt>
      <trkpt lat="49.03649" lon="7.68489">
        <ele>241.839072</ele>
        <time>2024-03-09T12:46:59.390Z</time>
      </trkpt>
      <trkpt lat="49.03663" lon="7.68403">
        <ele>242.825794</ele>
        <time>2024-03-09T12:47:17.886Z</time>
      </trkpt>
      <trkpt lat="49.03664" lon="7.68399">
        <ele>242.875105</ele>
        <time>2024-03-09T12:47:18.797Z</time>
      </trkpt>
      <trkpt lat="49.03664" lon="7.68396">
        <ele>242.907979</ele>
        <time>2024-03-09T12:47:19.546Z</time>
      </trkpt>
      <trkpt lat="49.03675" lon="7.68343">
        <ele>243.527308</ele>
        <time>2024-03-09T12:47:30.512Z</time>
      </trkpt>
      <trkpt lat="49.03676" lon="7.68338">
        <ele>243.581391</ele>
        <time>2024-03-09T12:47:31.590Z</time>
      </trkpt>
      <trkpt lat="49.0369" lon="7.68291">
        <ele>244.158526</ele>
        <time>2024-03-09T12:47:42.393Z</time>
      </trkpt>
      <trkpt lat="49.03691" lon="7.68287">
        <ele>244.200838</ele>
        <time>2024-03-09T12:47:43.227Z</time>
      </trkpt>
      <trkpt lat="49.03697" lon="7.68263">
        <ele>244.4856</ele>
        <time>2024-03-09T12:47:47.836Z</time>
      </trkpt>
      <trkpt lat="49.03712" lon="7.68207">
        <ele>245.037589</ele>
        <time>2024-03-09T12:47:59.524Z</time>
      </trkpt>
      <trkpt lat="49.03713" lon="7.68191">
        <ele>245.123429</ele>
        <time>2024-03-09T12:48:02.796Z</time>
      </trkpt>
      <trkpt lat="49.03713" lon="7.68177">
        <ele>245.196207</ele>
        <time>2024-03-09T12:48:05.360Z</time>
      </trkpt>
      <trkpt lat="49.03712" lon="7.68165">
        <ele>245.265127</ele>
        <time>2024-03-09T12:48:07.105Z</time>
      </trkpt>
      <trkpt lat="49.0371" lon="7.68147">
        <ele>245.358424</ele>
        <time>2024-03-09T12:48:10.045Z</time>
      </trkpt>
      <trkpt lat="49.03709" lon="7.68143">
        <ele>245.383068</ele>
        <time>2024-03-09T12:48:11.050Z</time>
      </trkpt>
      <trkpt lat="49.03704" lon="7.68093">
        <ele>245.649839</ele>
        <time>2024-03-09T12:48:20.965Z</time>
      </trkpt>
      <trkpt lat="49.03703" lon="7.68079">
        <ele>245.725458</ele>
        <time>2024-03-09T12:48:24.810Z</time>
      </trkpt>
      <trkpt lat="49.03697" lon="7.68022">
        <ele>246.032982</ele>
        <time>2024-03-09T12:48:33.540Z</time>
      </trkpt>
      <trkpt lat="49.03697" lon="7.67996">
        <ele>246.170623</ele>
        <time>2024-03-09T12:48:37.302Z</time>
      </trkpt>
      <trkpt lat="49.03697" lon="7.67994">
        <ele>246.183998</ele>
        <time>2024-03-09T12:48:37.702Z</time>
      </trkpt>
      <trkpt lat="49.03699" lon="7.67975">
        <ele>246.28543</ele>
        <time>2024-03-09T12:48:40.211Z</time>
      </trkpt>
      <trkpt lat="49.03705" lon="7.67916">
        <ele>246.395073</ele>
        <time>2024-03-09T12:48:48.904Z</time>
      </trkpt>
      <trkpt lat="49.03708" lon="7.6786">
        <ele>246.41279</ele>
        <time>2024-03-09T12:48:56.799Z</time>
      </trkpt>
      <trkpt lat="49.03709" lon="7.6784">
        <ele>246.41895</ele>
        <time>2024-03-09T12:48:59.180Z</time>
      </trkpt>
      <trkpt lat="49.03711" lon="7.67773">
        <ele>246.44041</ele>
        <time>2024-03-09T12:49:08.481Z</time>
      </trkpt>
      <trkpt lat="49.03706" lon="7.67736">
        <ele>246.452366</ele>
        <time>2024-03-09T12:49:13.466Z</time>
      </trkpt>
      <trkpt lat="49.03704" lon="7.67729">
        <ele>246.454852</ele>
        <time>2024-03-09T12:49:14.607Z</time>
      </trkpt>
      <trkpt lat="49.03701" lon="7.67717">
        <ele>246.458829</ele>
        <time>2024-03-09T12:49:16.833Z</time>
      </trkpt>
      <trkpt lat="49.03699" lon="7.67703">
        <ele>246.463303</ele>
        <time>2024-03-09T12:49:21.278Z</time>
      </trkpt>
      <trkpt lat="49.0368" lon="7.67615">
        <ele>247.752042</ele>
        <time>2024-03-09T12:49:38.081Z</time>
      </trkpt>
      <trkpt lat="49.03677" lon="7.67605">
        <ele>247.925344</ele>
        <time>2024-03-09T12:49:40.832Z</time>
      </trkpt>
      <trkpt lat="49.03674" lon="7.67593">
        <ele>248.148777</ele>
        <time>2024-03-09T12:49:44.905Z</time>
      </trkpt>
      <trkpt lat="49.03662" lon="7.67546">
        <ele>248.99862</ele>
        <time>2024-03-09T12:49:55.042Z</time>
      </trkpt>
      <trkpt lat="49.03656" lon="7.67505">
        <ele>249.71759</ele>
        <time>2024-03-09T12:50:03.311Z</time>
      </trkpt>
      <trkpt lat="49.03648" lon="7.67492">
        <ele>250.015618</ele>
        <time>2024-03-09T12:50:10.644Z</time>
      </trkpt>
      <trkpt lat="49.03646" lon="7.67474">
        <ele>250.318763</ele>
        <time>2024-03-09T12:50:13.943Z</time>
      </trkpt>
      <trkpt lat="49.0364" lon="7.67433">
        <ele>251.032719</ele>
        <time>2024-03-09T12:50:26.734Z</time>
      </trkpt>
      <trkpt lat="49.03638" lon="7.6739">
        <ele>251.986064</ele>
        <time>2024-03-09T12:50:38.808Z</time>
      </trkpt>
      <trkpt lat="49.0363" lon="7.67268">
        <ele>254.804411</ele>
        <time>2024-03-09T12:51:14.528Z</time>
      </trkpt>
      <trkpt lat="49.03617" lon="7.67195">
        <ele>256.534405</ele>
        <time>2024-03-09T12:51:30.608Z</time>
      </trkpt>
      <trkpt lat="49.03607" lon="7.6716">
        <ele>257.419359</ele>
        <time>2024-03-09T12:51:39.147Z</time>
      </trkpt>
      <trkpt lat="49.03555" lon="7.67036">
        <ele>260.437005</ele>
        <time>2024-03-09T12:52:14.197Z</time>
      </trkpt>
      <trkpt lat="49.03536" lon="7.67">
        <ele>261.376653</ele>
        <time>2024-03-09T12:52:25.873Z</time>
      </trkpt>
      <trkpt lat="49.03515" lon="7.66969">
        <ele>262.288655</ele>
        <time>2024-03-09T12:52:37.467Z</time>
      </trkpt>
      <trkpt lat="49.03484" lon="7.6694">
        <ele>263.549034</ele>
        <time>2024-03-09T12:52:52.570Z</time>
      </trkpt>
      <trkpt lat="49.03447" lon="7.66916">
        <ele>265.160381</ele>
        <time>2024-03-09T12:53:09.862Z</time>
      </trkpt>
      <trkpt lat="49.03299" lon="7.66808">
        <ele>271.422796</ele>
        <time>2024-03-09T12:54:20.883Z</time>
      </trkpt>
      <trkpt lat="49.03259" lon="7.66781">
        <ele>272.719846</ele>
        <time>2024-03-09T12:54:38.026Z</time>
      </trkpt>
      <trkpt lat="49.03227" lon="7.66768">
        <ele>273.708085</ele>
        <time>2024-03-09T12:54:50.405Z</time>
      </trkpt>
      <trkpt lat="49.03193" lon="7.66764">
        <ele>274.713683</ele>
        <time>2024-03-09T12:55:02.053Z</time>
      </trkpt>
      <trkpt lat="49.03171" lon="7.66765">
        <ele>275.395858</ele>
        <time>2024-03-09T12:55:09.333Z</time>
      </trkpt>
      <trkpt lat="49.03146" lon="7.66771">
        <ele>275.84021</ele>
        <time>2024-03-09T12:55:16.702Z</time>
      </trkpt>
      <trkpt lat="49.03104" lon="7.66787">
        <ele>276.262593</ele>
        <time>2024-03-09T12:55:28.835Z</time>
      </trkpt>
      <trkpt lat="49.03071" lon="7.66803">
        <ele>276.610365</ele>
        <time>2024-03-09T12:55:38.602Z</time>
      </trkpt>
      <trkpt lat="49.02961" lon="7.66838">
        <ele>277.839225</ele>
        <time>2024-03-09T12:56:06.653Z</time>
      </trkpt>
      <trkpt lat="49.02947" lon="7.6684">
        <ele>278.046266</ele>
        <time>2024-03-09T12:56:10.091Z</time>
      </trkpt>
      <trkpt lat="49.02917" lon="7.66835">
        <ele>278.483473</ele>
        <time>2024-03-09T12:56:17.583Z</time>
      </trkpt>
      <trkpt lat="49.02901" lon="7.66827">
        <ele>278.726042</ele>
        <time>2024-03-09T12:56:22.070Z</time>
      </trkpt>
      <trkpt lat="49.0279" lon="7.66759">
        <ele>280.874147</ele>
        <time>2024-03-09T12:57:01.077Z</time>
      </trkpt>
      <trkpt lat="49.02723" lon="7.66723">
        <ele>283.02429</ele>
        <time>2024-03-09T12:57:28.560Z</time>
      </trkpt>
      <trkpt lat="49.02695" lon="7.66712">
        <ele>283.899592</ele>
        <time>2024-03-09T12:57:39.914Z</time>
      </trkpt>
      <trkpt lat="49.02647" lon="7.66701">
        <ele>285.382996</ele>
        <time>2024-03-09T12:57:59.176Z</time>
      </trkpt>
      <trkpt lat="49.02595" lon="7.66692">
        <ele>286.068922</ele>
        <time>2024-03-09T12:58:19.062Z</time>
      </trkpt>
      <trkpt lat="49.02551" lon="7.66678">
        <ele>286.593461</ele>
        <time>2024-03-09T12:58:34.172Z</time>
      </trkpt>
      <trkpt lat="49.02466" lon="7.66639">
        <ele>287.554703</ele>
        <time>2024-03-09T12:58:54.929Z</time>
      </trkpt>
      <trkpt lat="49.02424" lon="7.66626">
        <ele>285.839945</ele>
        <time>2024-03-09T12:59:02.592Z</time>
      </trkpt>
      <trkpt lat="49.02325" lon="7.66602">
        <ele>281.848518</ele>
        <time>2024-03-09T12:59:18.734Z</time>
      </trkpt>
      <trkpt lat="49.02254" lon="7.66583">
        <ele>278.290415</ele>
        <time>2024-03-09T12:59:29.765Z</time>
      </trkpt>
      <trkpt lat="49.02137" lon="7.66544">
        <ele>271.252054</ele>
        <time>2024-03-09T12:59:47.982Z</time>
      </trkpt>
      <trkpt lat="49.02125" lon="7.66536">
        <ele>270.466532</ele>
        <time>2024-03-09T12:59:50.051Z</time>
      </trkpt>
      <trkpt lat="49.01935" lon="7.66381">
        <ele>261.070143</ele>
        <time>2024-03-09T13:00:24.963Z</time>
      </trkpt>
      <trkpt lat="49.01781" lon="7.66216">
        <ele>256.071698</ele>
        <time>2024-03-09T13:00:58.638Z</time>
      </trkpt>
      <trkpt lat="49.01537" lon="7.65939">
        <ele>249.164508</ele>
        <time>2024-03-09T13:01:53.896Z</time>
      </trkpt>
      <trkpt lat="49.01477" lon="7.65886">
        <ele>247.477579</ele>
        <time>2024-03-09T13:02:05.844Z</time>
      </trkpt>
      <trkpt lat="49.01452" lon="7.65871">
        <ele>246.817415</ele>
        <time>2024-03-09T13:02:10.490Z</time>
      </trkpt>
      <trkpt lat="49.01443" lon="7.65866">
        <ele>246.59831</ele>
        <time>2024-03-09T13:02:12.134Z</time>
      </trkpt>
      <trkpt lat="49.01362" lon="7.65822">
        <ele>244.489565</ele>
        <time>2024-03-09T13:02:27.800Z</time>
      </trkpt>
      <trkpt lat="49.01336" lon="7.65812">
        <ele>243.956396</ele>
        <time>2024-03-09T13:02:32.897Z</time>
      </trkpt>
      <trkpt lat="49.0131" lon="7.65816">
        <ele>243.518271</ele>
        <time>2024-03-09T13:02:37.675Z</time>
      </trkpt>
      <trkpt lat="49.01255" lon="7.65843">
        <ele>242.536157</ele>
        <time>2024-03-09T13:02:48.735Z</time>
      </trkpt>
      <trkpt lat="49.01241" lon="7.65856">
        <ele>242.26007</ele>
        <time>2024-03-09T13:02:51.897Z</time>
      </trkpt>
      <trkpt lat="49.01211" lon="7.65884">
        <ele>241.65957</ele>
        <time>2024-03-09T13:02:58.730Z</time>
      </trkpt>
      <trkpt lat="49.0119" lon="7.6591">
        <ele>241.196238</ele>
        <time>2024-03-09T13:03:03.912Z</time>
      </trkpt>
      <trkpt lat="49.01144" lon="7.65987">
        <ele>239.298341</ele>
        <time>2024-03-09T13:03:15.570Z</time>
      </trkpt>
      <trkpt lat="49.01103" lon="7.66096">
        <ele>236.977604</ele>
        <time>2024-03-09T13:03:29.775Z</time>
      </trkpt>
      <trkpt lat="49.01088" lon="7.66149">
        <ele>235.96587</ele>
        <time>2024-03-09T13:03:36.427Z</time>
      </trkpt>
      <trkpt lat="49.01083" lon="7.66172">
        <ele>235.631222</ele>
        <time>2024-03-09T13:03:39.269Z</time>
      </trkpt>
      <trkpt lat="49.01076" lon="7.66266">
        <ele>234.317816</ele>
        <time>2024-03-09T13:03:50.069Z</time>
      </trkpt>
      <trkpt lat="49.0107" lon="7.66343">
        <ele>233.233415</ele>
        <time>2024-03-09T13:03:59.132Z</time>
      </trkpt>
      <trkpt lat="49.01062" lon="7.66387">
        <ele>232.610026</ele>
        <time>2024-03-09T13:04:04.948Z</time>
      </trkpt>
      <trkpt lat="49.0105" lon="7.66413">
        <ele>232.358269</ele>
        <time>2024-03-09T13:04:09.628Z</time>
      </trkpt>
      <trkpt lat="49.01033" lon="7.66435">
        <ele>232.458115</ele>
        <time>2024-03-09T13:04:14.323Z</time>
      </trkpt>
      <trkpt lat="49.01023" lon="7.66443">
        <ele>232.511905</ele>
        <time>2024-03-09T13:04:16.874Z</time>
      </trkpt>
      <trkpt lat="49.01016" lon="7.66447">
        <ele>232.546029</ele>
        <time>2024-03-09T13:04:18.990Z</time>
      </trkpt>
      <trkpt lat="49.01012" lon="7.66449">
        <ele>232.561131</ele>
        <time>2024-03-09T13:04:19.615Z</time>
      </trkpt>
      <trkpt lat="49.00986" lon="7.66454">
        <ele>232.683759</ele>
        <time>2024-03-09T13:04:25.569Z</time>
      </trkpt>
      <trkpt lat="49.00921" lon="7.66457">
        <ele>232.978314</ele>
        <time>2024-03-09T13:04:41.576Z</time>
      </trkpt>
      <trkpt lat="49.00901" lon="7.66462">
        <ele>233.066572</ele>
        <time>2024-03-09T13:04:47.183Z</time>
      </trkpt>
      <trkpt lat="49.00875" lon="7.66476">
        <ele>233.444939</ele>
        <time>2024-03-09T13:04:55.936Z</time>
      </trkpt>
      <trkpt lat="49.00782" lon="7.6654">
        <ele>236.059012</ele>
        <time>2024-03-09T13:05:31.870Z</time>
      </trkpt>
      <trkpt lat="49.00757" lon="7.66549">
        <ele>236.713347</ele>
        <time>2024-03-09T13:05:41.564Z</time>
      </trkpt>
      <trkpt lat="49.0073" lon="7.66554">
        <ele>237.412036</ele>
        <time>2024-03-09T13:05:52.044Z</time>
      </trkpt>
      <trkpt lat="49.00698" lon="7.66549">
        <ele>238.252774</ele>
        <time>2024-03-09T13:06:04.405Z</time>
      </trkpt>
      <trkpt lat="49.00547" lon="7.66511">
        <ele>242.291438</ele>
        <time>2024-03-09T13:06:59.357Z</time>
      </trkpt>
      <trkpt lat="49.00529" lon="7.66509">
        <ele>242.543202</ele>
        <time>2024-03-09T13:07:05.297Z</time>
      </trkpt>
      <trkpt lat="49.00457" lon="7.66512">
        <ele>242.870063</ele>
        <time>2024-03-09T13:07:25.956Z</time>
      </trkpt>
      <trkpt lat="49.00377" lon="7.6649">
        <ele>243.239214</ele>
        <time>2024-03-09T13:07:43.638Z</time>
      </trkpt>
      <trkpt lat="49.00336" lon="7.6649">
        <ele>242.811357</ele>
        <time>2024-03-09T13:07:51.483Z</time>
      </trkpt>
      <trkpt lat="49.00306" lon="7.66485">
        <ele>242.226033</ele>
        <time>2024-03-09T13:07:57.041Z</time>
      </trkpt>
      <trkpt lat="49.00283" lon="7.66478">
        <ele>241.76821</ele>
        <time>2024-03-09T13:08:01.129Z</time>
      </trkpt>
      <trkpt lat="49.00269" lon="7.66473">
        <ele>241.478393</ele>
        <time>2024-03-09T13:08:03.876Z</time>
      </trkpt>
      <trkpt lat="49.00265" lon="7.66471">
        <ele>241.393266</ele>
        <time>2024-03-09T13:08:04.590Z</time>
      </trkpt>
      <trkpt lat="49.00226" lon="7.66456">
        <ele>240.596648</ele>
        <time>2024-03-09T13:08:11.942Z</time>
      </trkpt>
      <trkpt lat="49.00209" lon="7.66446">
        <ele>240.245354</ele>
        <time>2024-03-09T13:08:15.181Z</time>
      </trkpt>
      <trkpt lat="49.00166" lon="7.66404">
        <ele>239.082946</ele>
        <time>2024-03-09T13:08:24.467Z</time>
      </trkpt>
      <trkpt lat="49.00116" lon="7.66328">
        <ele>237.324957</ele>
        <time>2024-03-09T13:08:36.667Z</time>
      </trkpt>
      <trkpt lat="49.00095" lon="7.66306">
        <ele>236.679572</ele>
        <time>2024-03-09T13:08:41.273Z</time>
      </trkpt>
      <trkpt lat="49.00061" lon="7.66284">
        <ele>235.747259</ele>
        <time>2024-03-09T13:08:48.071Z</time>
      </trkpt>
      <trkpt lat="49.00024" lon="7.66263">
        <ele>234.745443</ele>
        <time>2024-03-09T13:08:55.053Z</time>
      </trkpt>
      <trkpt lat="48.99994" lon="7.66246">
        <ele>233.922807</ele>
        <time>2024-03-09T13:09:00.673Z</time>
      </trkpt>
      <trkpt lat="48.99967" lon="7.66226">
        <ele>233.151116</ele>
        <time>2024-03-09T13:09:06.047Z</time>
      </trkpt>
      <trkpt lat="48.99934" lon="7.66196">
        <ele>232.180798</ele>
        <time>2024-03-09T13:09:12.745Z</time>
      </trkpt>
      <trkpt lat="48.99913" lon="7.66172">
        <ele>231.507695</ele>
        <time>2024-03-09T13:09:17.341Z</time>
      </trkpt>
      <trkpt lat="48.99898" lon="7.66154">
        <ele>231.008231</ele>
        <time>2024-03-09T13:09:20.645Z</time>
      </trkpt>
      <trkpt lat="48.99865" lon="7.66126">
        <ele>229.981405</ele>
        <time>2024-03-09T13:09:27.405Z</time>
      </trkpt>
      <trkpt lat="48.99839" lon="7.66116">
        <ele>229.242929</ele>
        <time>2024-03-09T13:09:32.217Z</time>
      </trkpt>
      <trkpt lat="48.99782" lon="7.66116">
        <ele>227.656767</ele>
        <time>2024-03-09T13:09:41.940Z</time>
      </trkpt>
      <trkpt lat="48.99739" lon="7.661">
        <ele>226.420052</ele>
        <time>2024-03-09T13:09:49.521Z</time>
      </trkpt>
      <trkpt lat="48.99641" lon="7.66053">
        <ele>223.981456</ele>
        <time>2024-03-09T13:10:08.043Z</time>
      </trkpt>
      <trkpt lat="48.99639" lon="7.66052">
        <ele>223.931481</ele>
        <time>2024-03-09T13:10:08.477Z</time>
      </trkpt>
      <trkpt lat="48.99598" lon="7.66039">
        <ele>223.012345</ele>
        <time>2024-03-09T13:10:15.958Z</time>
      </trkpt>
      <trkpt lat="48.99548" lon="7.66022">
        <ele>221.886226</ele>
        <time>2024-03-09T13:10:25.101Z</time>
      </trkpt>
      <trkpt lat="48.9952" lon="7.66012">
        <ele>221.491929</ele>
        <time>2024-03-09T13:10:30.557Z</time>
      </trkpt>
      <trkpt lat="48.99512" lon="7.66009">
        <ele>221.425867</ele>
        <time>2024-03-09T13:10:32.114Z</time>
      </trkpt>
      <trkpt lat="48.99486" lon="7.66009">
        <ele>221.211384</ele>
        <time>2024-03-09T13:10:37.188Z</time>
      </trkpt>
      <trkpt lat="48.99448" lon="7.66022">
        <ele>220.887193</ele>
        <time>2024-03-09T13:10:45.080Z</time>
      </trkpt>
      <trkpt lat="48.99438" lon="7.66027">
        <ele>220.795747</ele>
        <time>2024-03-09T13:10:47.449Z</time>
      </trkpt>
      <trkpt lat="48.99412" lon="7.66047">
        <ele>220.556419</ele>
        <time>2024-03-09T13:10:53.219Z</time>
      </trkpt>
      <trkpt lat="48.99339" lon="7.6612">
        <ele>220.190058</ele>
        <time>2024-03-09T13:11:12.008Z</time>
      </trkpt>
      <trkpt lat="48.99303" lon="7.66157">
        <ele>220.242482</ele>
        <time>2024-03-09T13:11:22.496Z</time>
      </trkpt>
      <trkpt lat="48.99288" lon="7.66177">
        <ele>220.267127</ele>
        <time>2024-03-09T13:11:27.362Z</time>
      </trkpt>
      <trkpt lat="48.99261" lon="7.66227">
        <ele>220.31798</ele>
        <time>2024-03-09T13:11:37.899Z</time>
      </trkpt>
      <trkpt lat="48.99248" lon="7.6626">
        <ele>220.348518</ele>
        <time>2024-03-09T13:11:43.503Z</time>
      </trkpt>
      <trkpt lat="48.99227" lon="7.66331">
        <ele>220.37029</ele>
        <time>2024-03-09T13:11:54.661Z</time>
      </trkpt>
      <trkpt lat="48.99204" lon="7.66418">
        <ele>220.383453</ele>
        <time>2024-03-09T13:12:08.551Z</time>
      </trkpt>
      <trkpt lat="48.9919" lon="7.66503">
        <ele>220.395799</ele>
        <time>2024-03-09T13:12:21.162Z</time>
      </trkpt>
      <trkpt lat="48.99176" lon="7.66645">
        <ele>220.658598</ele>
        <time>2024-03-09T13:12:42.973Z</time>
      </trkpt>
      <trkpt lat="48.9916" lon="7.66756">
        <ele>220.921633</ele>
        <time>2024-03-09T13:13:03.264Z</time>
      </trkpt>
      <trkpt lat="48.99156" lon="7.66921">
        <ele>220.643126</ele>
        <time>2024-03-09T13:13:26.561Z</time>
      </trkpt>
      <trkpt lat="48.9916" lon="7.67099">
        <ele>220.040131</ele>
        <time>2024-03-09T13:13:50.384Z</time>
      </trkpt>
      <trkpt lat="48.99163" lon="7.6719">
        <ele>219.691895</ele>
        <time>2024-03-09T13:14:02.007Z</time>
      </trkpt>
      <trkpt lat="48.9916" lon="7.67237">
        <ele>219.514633</ele>
        <time>2024-03-09T13:14:08.234Z</time>
      </trkpt>
      <trkpt lat="48.99143" lon="7.67306">
        <ele>219.233502</ele>
        <time>2024-03-09T13:14:18.114Z</time>
      </trkpt>
      <trkpt lat="48.99133" lon="7.67334">
        <ele>219.110467</ele>
        <time>2024-03-09T13:14:24.191Z</time>
      </trkpt>
      <trkpt lat="48.99121" lon="7.67359">
        <ele>219.16766</ele>
        <time>2024-03-09T13:14:28.628Z</time>
      </trkpt>
      <trkpt lat="48.99108" lon="7.67378">
        <ele>219.288884</ele>
        <time>2024-03-09T13:14:33.971Z</time>
      </trkpt>
      <trkpt lat="48.9909" lon="7.67396">
        <ele>219.425133</ele>
        <time>2024-03-09T13:14:38.711Z</time>
      </trkpt>
      <trkpt lat="48.99052" lon="7.67421">
        <ele>219.694737</ele>
        <time>2024-03-09T13:14:48.662Z</time>
      </trkpt>
      <trkpt lat="48.98996" lon="7.6743">
        <ele>220.062043</ele>
        <time>2024-03-09T13:15:04.324Z</time>
      </trkpt>
      <trkpt lat="48.98983" lon="7.67439">
        <ele>220.156847</ele>
        <time>2024-03-09T13:15:08.434Z</time>
      </trkpt>
      <trkpt lat="48.98969" lon="7.67459">
        <ele>220.252408</ele>
        <time>2024-03-09T13:15:13.491Z</time>
      </trkpt>
      <trkpt lat="48.98949" lon="7.67498">
        <ele>220.297653</ele>
        <time>2024-03-09T13:15:22.264Z</time>
      </trkpt>
      <trkpt lat="48.98912" lon="7.67631">
        <ele>220.427095</ele>
        <time>2024-03-09T13:15:44.524Z</time>
      </trkpt>
      <trkpt lat="48.98881" lon="7.67762">
        <ele>219.719268</ele>
        <time>2024-03-09T13:16:03.239Z</time>
      </trkpt>
      <trkpt lat="48.98876" lon="7.6781">
        <ele>219.159423</ele>
        <time>2024-03-09T13:16:09.376Z</time>
      </trkpt>
      <trkpt lat="48.98874" lon="7.67854">
        <ele>218.653561</ele>
        <time>2024-03-09T13:16:14.778Z</time>
      </trkpt>
      <trkpt lat="48.98869" lon="7.67868">
        <ele>218.469226</ele>
        <time>2024-03-09T13:16:16.682Z</time>
      </trkpt>
      <trkpt lat="48.98856" lon="7.67885">
        <ele>218.171183</ele>
        <time>2024-03-09T13:16:19.689Z</time>
      </trkpt>
      <trkpt lat="48.9884" lon="7.67896">
        <ele>217.863373</ele>
        <time>2024-03-09T13:16:22.905Z</time>
      </trkpt>
      <trkpt lat="48.98815" lon="7.67909">
        <ele>217.406012</ele>
        <time>2024-03-09T13:16:27.465Z</time>
      </trkpt>
      <trkpt lat="48.98783" lon="7.67926">
        <ele>216.714664</ele>
        <time>2024-03-09T13:16:33.225Z</time>
      </trkpt>
      <trkpt lat="48.98764" lon="7.67931">
        <ele>216.308256</ele>
        <time>2024-03-09T13:16:36.584Z</time>
      </trkpt>
      <trkpt lat="48.98757" lon="7.67932">
        <ele>216.164861</ele>
        <time>2024-03-09T13:16:37.758Z</time>
      </trkpt>
      <trkpt lat="48.98754" lon="7.67934">
        <ele>216.097854</ele>
        <time>2024-03-09T13:16:38.313Z</time>
      </trkpt>
      <trkpt lat="48.98737" lon="7.67941">
        <ele>215.718426</ele>
        <time>2024-03-09T13:16:41.766Z</time>
      </trkpt>
      <trkpt lat="48.9866" lon="7.68007">
        <ele>213.892457</ele>
        <time>2024-03-09T13:16:58.077Z</time>
      </trkpt>
      <trkpt lat="48.98639" lon="7.68031">
        <ele>213.422166</ele>
        <time>2024-03-09T13:17:03.242Z</time>
      </trkpt>
      <trkpt lat="48.98629" lon="7.68043">
        <ele>213.247849</ele>
        <time>2024-03-09T13:17:05.631Z</time>
      </trkpt>
      <trkpt lat="48.98605" lon="7.68076">
        <ele>212.79732</ele>
        <time>2024-03-09T13:17:11.923Z</time>
      </trkpt>
      <trkpt lat="48.98585" lon="7.68087">
        <ele>212.507016</ele>
        <time>2024-03-09T13:17:16.008Z</time>
      </trkpt>
      <trkpt lat="48.98568" lon="7.68101">
        <ele>212.239877</ele>
        <time>2024-03-09T13:17:19.662Z</time>
      </trkpt>
      <trkpt lat="48.98557" lon="7.68122">
        <ele>211.996182</ele>
        <time>2024-03-09T13:17:23.217Z</time>
      </trkpt>
      <trkpt lat="48.9853" lon="7.68189">
        <ele>211.277842</ele>
        <time>2024-03-09T13:17:33.422Z</time>
      </trkpt>
      <trkpt lat="48.98515" lon="7.68215">
        <ele>210.88949</ele>
        <time>2024-03-09T13:17:37.792Z</time>
      </trkpt>
      <trkpt lat="48.9846" lon="7.68281">
        <ele>209.314611</ele>
        <time>2024-03-09T13:17:50.482Z</time>
      </trkpt>
      <trkpt lat="48.9838" lon="7.68346">
        <ele>207.261184</ele>
        <time>2024-03-09T13:18:06.335Z</time>
      </trkpt>
      <trkpt lat="48.9835" lon="7.6836">
        <ele>206.830278</ele>
        <time>2024-03-09T13:18:12.031Z</time>
      </trkpt>
      <trkpt lat="48.9831" lon="7.68358">
        <ele>206.433251</ele>
        <time>2024-03-09T13:18:19.347Z</time>
      </trkpt>
      <trkpt lat="48.98275" lon="7.68348">
        <ele>206.076986</ele>
        <time>2024-03-09T13:18:26.248Z</time>
      </trkpt>
      <trkpt lat="48.98247" lon="7.68333">
        <ele>205.772184</ele>
        <time>2024-03-09T13:18:32.518Z</time>
      </trkpt>
      <trkpt lat="48.98186" lon="7.6827">
        <ele>205.458019</ele>
        <time>2024-03-09T13:18:49.151Z</time>
      </trkpt>
      <trkpt lat="48.98177" lon="7.68265">
        <ele>205.557195</ele>
        <time>2024-03-09T13:18:51.780Z</time>
      </trkpt>
      <trkpt lat="48.98147" lon="7.68257">
        <ele>205.865626</ele>
        <time>2024-03-09T13:19:00.581Z</time>
      </trkpt>
      <trkpt lat="48.98115" lon="7.68257">
        <ele>206.193046</ele>
        <time>2024-03-09T13:19:10.080Z</time>
      </trkpt>
      <trkpt lat="48.98032" lon="7.68277">
        <ele>207.041856</ele>
        <time>2024-03-09T13:19:35.134Z</time>
      </trkpt>
      <trkpt lat="48.97739" lon="7.68359">
        <ele>207.704597</ele>
        <time>2024-03-09T13:20:47.232Z</time>
      </trkpt>
      <trkpt lat="48.97707" lon="7.68371">
        <ele>207.610542</ele>
        <time>2024-03-09T13:20:53.439Z</time>
      </trkpt>
      <trkpt lat="48.97663" lon="7.68391">
        <ele>207.318471</ele>
        <time>2024-03-09T13:21:02.329Z</time>
      </trkpt>
      <trkpt lat="48.97657" lon="7.68395">
        <ele>207.229897</ele>
        <time>2024-03-09T13:21:03.696Z</time>
      </trkpt>
      <trkpt lat="48.97636" lon="7.68418">
        <ele>206.877158</ele>
        <time>2024-03-09T13:21:08.807Z</time>
      </trkpt>
      <trkpt lat="48.97596" lon="7.6849">
        <ele>206.017053</ele>
        <time>2024-03-09T13:21:19.762Z</time>
      </trkpt>
      <trkpt lat="48.97582" lon="7.68525">
        <ele>205.642938</ele>
        <time>2024-03-09T13:21:24.546Z</time>
      </trkpt>
      <trkpt lat="48.9757" lon="7.68574">
        <ele>205.168258</ele>
        <time>2024-03-09T13:21:31.797Z</time>
      </trkpt>
      <trkpt lat="48.97562" lon="7.68596">
        <ele>205.032987</ele>
        <time>2024-03-09T13:21:36.082Z</time>
      </trkpt>
      <trkpt lat="48.9756" lon="7.68602">
        <ele>205.033089</ele>
        <time>2024-03-09T13:21:37.546Z</time>
      </trkpt>
      <trkpt lat="48.97543" lon="7.68647">
        <ele>205.033816</ele>
        <time>2024-03-09T13:21:47.137Z</time>
      </trkpt>
      <trkpt lat="48.97535" lon="7.6866">
        <ele>205.03406</ele>
        <time>2024-03-09T13:21:49.796Z</time>
      </trkpt>
      <trkpt lat="48.97529" lon="7.68667">
        <ele>205.03421</ele>
        <time>2024-03-09T13:21:51.589Z</time>
      </trkpt>
      <trkpt lat="48.97521" lon="7.6867">
        <ele>205.034393</ele>
        <time>2024-03-09T13:21:53.258Z</time>
      </trkpt>
      <trkpt lat="48.97514" lon="7.68669">
        <ele>205.034537</ele>
        <time>2024-03-09T13:21:55.492Z</time>
      </trkpt>
      <trkpt lat="48.97507" lon="7.68662">
        <ele>205.034726</ele>
        <time>2024-03-09T13:21:57.578Z</time>
      </trkpt>
      <trkpt lat="48.97506" lon="7.68661">
        <ele>205.034753</ele>
        <time>2024-03-09T13:21:57.903Z</time>
      </trkpt>
      <trkpt lat="48.97507" lon="7.68662">
        <ele>205.034781</ele>
        <time>2024-03-09T13:21:58.169Z</time>
      </trkpt>
      <trkpt lat="48.97514" lon="7.68669">
        <ele>205.03497</ele>
        <time>2024-03-09T13:22:00.086Z</time>
      </trkpt>
      <trkpt lat="48.97521" lon="7.6867">
        <ele>205.035114</ele>
        <time>2024-03-09T13:22:01.304Z</time>
      </trkpt>
      <trkpt lat="48.97529" lon="7.68667">
        <ele>205.035297</ele>
        <time>2024-03-09T13:22:03.776Z</time>
      </trkpt>
      <trkpt lat="48.97535" lon="7.6866">
        <ele>205.035447</ele>
        <time>2024-03-09T13:22:05.231Z</time>
      </trkpt>
      <trkpt lat="48.97543" lon="7.68647">
        <ele>205.035691</ele>
        <time>2024-03-09T13:22:07.741Z</time>
      </trkpt>
      <trkpt lat="48.9756" lon="7.68602">
        <ele>205.036418</ele>
        <time>2024-03-09T13:22:14.415Z</time>
      </trkpt>
      <trkpt lat="48.97562" lon="7.68596">
        <ele>205.03652</ele>
        <time>2024-03-09T13:22:15.317Z</time>
      </trkpt>
      <trkpt lat="48.9757" lon="7.68574">
        <ele>205.157461</ele>
        <time>2024-03-09T13:22:18.568Z</time>
      </trkpt>
      <trkpt lat="48.97582" lon="7.68525">
        <ele>205.634283</ele>
        <time>2024-03-09T13:22:26.919Z</time>
      </trkpt>
      <trkpt lat="48.97596" lon="7.6849">
        <ele>206.010086</ele>
        <time>2024-03-09T13:22:36.425Z</time>
      </trkpt>
      <trkpt lat="48.97636" lon="7.68418">
        <ele>206.874071</ele>
        <time>2024-03-09T13:22:58.502Z</time>
      </trkpt>
      <trkpt lat="48.97657" lon="7.68395">
        <ele>207.228402</ele>
        <time>2024-03-09T13:23:05.339Z</time>
      </trkpt>
      <trkpt lat="48.97663" lon="7.68391">
        <ele>207.317375</ele>
        <time>2024-03-09T13:23:06.891Z</time>
      </trkpt>
      <trkpt lat="48.97707" lon="7.68371">
        <ele>207.619143</ele>
        <time>2024-03-09T13:23:20.301Z</time>
      </trkpt>
      <trkpt lat="48.97739" lon="7.68359">
        <ele>207.70964</ele>
        <time>2024-03-09T13:23:30.229Z</time>
      </trkpt>
      <trkpt lat="48.98032" lon="7.68277">
        <ele>207.042485</ele>
        <time>2024-03-09T13:24:33.181Z</time>
      </trkpt>
      <trkpt lat="48.98115" lon="7.68257">
        <ele>206.1967</ele>
        <time>2024-03-09T13:24:49.160Z</time>
      </trkpt>
      <trkpt lat="48.98147" lon="7.68257">
        <ele>205.870448</ele>
        <time>2024-03-09T13:24:55.382Z</time>
      </trkpt>
      <trkpt lat="48.98177" lon="7.68265">
        <ele>205.563116</ele>
        <time>2024-03-09T13:25:01.251Z</time>
      </trkpt>
      <trkpt lat="48.98186" lon="7.6827">
        <ele>205.464293</ele>
        <time>2024-03-09T13:25:03.227Z</time>
      </trkpt>
      <trkpt lat="48.98247" lon="7.68333">
        <ele>205.765446</ele>
        <time>2024-03-09T13:25:19.267Z</time>
      </trkpt>
      <trkpt lat="48.98275" lon="7.68348">
        <ele>206.075172</ele>
        <time>2024-03-09T13:25:26.912Z</time>
      </trkpt>
      <trkpt lat="48.9831" lon="7.68358">
        <ele>206.437192</ele>
        <time>2024-03-09T13:25:37.015Z</time>
      </trkpt>
      <trkpt lat="48.9835" lon="7.6836">
        <ele>206.840633</ele>
        <time>2024-03-09T13:25:49.544Z</time>
      </trkpt>
      <trkpt lat="48.9838" lon="7.68346">
        <ele>207.261333</ele>
        <time>2024-03-09T13:25:59.964Z</time>
      </trkpt>
      <trkpt lat="48.9846" lon="7.68281">
        <ele>209.311006</ele>
        <time>2024-03-09T13:26:33.394Z</time>
      </trkpt>
      <trkpt lat="48.98515" lon="7.68215">
        <ele>210.883006</ele>
        <time>2024-03-09T13:26:56.535Z</time>
      </trkpt>
      <trkpt lat="48.9853" lon="7.68189">
        <ele>211.288742</ele>
        <time>2024-03-09T13:27:02.649Z</time>
      </trkpt>
      <trkpt lat="48.98557" lon="7.68122">
        <ele>212.044504</ele>
        <time>2024-03-09T13:27:17.079Z</time>
      </trkpt>
      <trkpt lat="48.98568" lon="7.68101">
        <ele>212.300894</ele>
        <time>2024-03-09T13:27:21.721Z</time>
      </trkpt>
      <trkpt lat="48.98585" lon="7.68087">
        <ele>212.581949</ele>
        <time>2024-03-09T13:27:27.506Z</time>
      </trkpt>
      <trkpt lat="48.98605" lon="7.68076">
        <ele>212.887376</ele>
        <time>2024-03-09T13:27:33.424Z</time>
      </trkpt>
      <trkpt lat="48.98629" lon="7.68043">
        <ele>213.361375</ele>
        <time>2024-03-09T13:27:42.796Z</time>
      </trkpt>
      <trkpt lat="48.98639" lon="7.68031">
        <ele>213.544773</ele>
        <time>2024-03-09T13:27:46.599Z</time>
      </trkpt>
      <trkpt lat="48.9866" lon="7.68007">
        <ele>214.106214</ele>
        <time>2024-03-09T13:27:54.310Z</time>
      </trkpt>
      <trkpt lat="48.98737" lon="7.67941">
        <ele>216.522757</ele>
        <time>2024-03-09T13:28:25.377Z</time>
      </trkpt>
      <trkpt lat="48.98754" lon="7.67934">
        <ele>217.024903</ele>
        <time>2024-03-09T13:28:31.388Z</time>
      </trkpt>
      <trkpt lat="48.98757" lon="7.67932">
        <ele>217.113583</ele>
        <time>2024-03-09T13:28:32.786Z</time>
      </trkpt>
      <trkpt lat="48.98764" lon="7.67931">
        <ele>217.303356</ele>
        <time>2024-03-09T13:28:36.361Z</time>
      </trkpt>
      <trkpt lat="48.98783" lon="7.67926">
        <ele>217.841209</ele>
        <time>2024-03-09T13:28:43.988Z</time>
      </trkpt>
      <trkpt lat="48.98815" lon="7.67909">
        <ele>218.742815</ele>
        <time>2024-03-09T13:28:58.064Z</time>
      </trkpt>
      <trkpt lat="48.98808" lon="7.679">
        <ele>218.893203</ele>
        <time>2024-03-09T13:29:04.566Z</time>
      </trkpt>
      <trkpt lat="48.98807" lon="7.67889">
        <ele>219.01064</ele>
        <time>2024-03-09T13:29:09.687Z</time>
      </trkpt>
      <trkpt lat="48.98799" lon="7.67873">
        <ele>219.229621</ele>
        <time>2024-03-09T13:29:17.047Z</time>
      </trkpt>
      <trkpt lat="48.98783" lon="7.67865">
        <ele>219.500064</ele>
        <time>2024-03-09T13:29:25.179Z</time>
      </trkpt>
      <trkpt lat="48.98789" lon="7.67847">
        <ele>219.714005</ele>
        <time>2024-03-09T13:29:32.983Z</time>
      </trkpt>
      <trkpt lat="48.98825" lon="7.67799">
        <ele>220.48117</ele>
        <time>2024-03-09T13:29:55.100Z</time>
      </trkpt>
      <trkpt lat="48.98837" lon="7.67784">
        <ele>220.722008</ele>
        <time>2024-03-09T13:30:01.796Z</time>
      </trkpt>
      <trkpt lat="48.98849" lon="7.67745">
        <ele>221.179511</ele>
        <time>2024-03-09T13:30:12.347Z</time>
      </trkpt>
      <trkpt lat="48.98837" lon="7.67784">
        <ele>221.472059</ele>
        <time>2024-03-09T13:30:23.138Z</time>
      </trkpt>
      <trkpt lat="48.98825" lon="7.67799">
        <ele>221.098338</ele>
        <time>2024-03-09T13:30:28.177Z</time>
      </trkpt>
      <trkpt lat="48.98789" lon="7.67847">
        <ele>219.907884</ele>
        <time>2024-03-09T13:30:44.031Z</time>
      </trkpt>
      <trkpt lat="48.98783" lon="7.67865">
        <ele>219.575901</ele>
        <time>2024-03-09T13:30:47.980Z</time>
      </trkpt>
      <trkpt lat="48.98799" lon="7.67873">
        <ele>219.156239</ele>
        <time>2024-03-09T13:30:53.437Z</time>
      </trkpt>
      <trkpt lat="48.98807" lon="7.67889">
        <ele>218.816434</ele>
        <time>2024-03-09T13:30:57.679Z</time>
      </trkpt>
      <trkpt lat="48.98808" lon="7.679">
        <ele>218.6342</ele>
        <time>2024-03-09T13:31:02.799Z</time>
      </trkpt>
      <trkpt lat="48.98815" lon="7.67909">
        <ele>218.400836</ele>
        <time>2024-03-09T13:31:09.301Z</time>
      </trkpt>
      <trkpt lat="48.98783" lon="7.67926">
        <ele>217.565209</ele>
        <time>2024-03-09T13:31:14.870Z</time>
      </trkpt>
      <trkpt lat="48.98764" lon="7.67931">
        <ele>217.084404</ele>
        <time>2024-03-09T13:31:18.182Z</time>
      </trkpt>
      <trkpt lat="48.98757" lon="7.67932">
        <ele>216.923326</ele>
        <time>2024-03-09T13:31:19.246Z</time>
      </trkpt>
      <trkpt lat="48.98754" lon="7.67934">
        <ele>216.848056</ele>
        <time>2024-03-09T13:31:19.764Z</time>
      </trkpt>
      <trkpt lat="48.98737" lon="7.67941">
        <ele>216.421837</ele>
        <time>2024-03-09T13:31:23.090Z</time>
      </trkpt>
      <trkpt lat="48.9866" lon="7.68007">
        <ele>214.370692</ele>
        <time>2024-03-09T13:31:38.507Z</time>
      </trkpt>
      <trkpt lat="48.98639" lon="7.68031">
        <ele>213.744876</ele>
        <time>2024-03-09T13:31:43.672Z</time>
      </trkpt>
      <trkpt lat="48.98629" lon="7.68043">
        <ele>213.45026</ele>
        <time>2024-03-09T13:31:46.061Z</time>
      </trkpt>
      <trkpt lat="48.98605" lon="7.68076">
        <ele>212.768176</ele>
        <time>2024-03-09T13:31:52.353Z</time>
      </trkpt>
      <trkpt lat="48.98585" lon="7.68087">
        <ele>212.454774</ele>
        <time>2024-03-09T13:31:56.438Z</time>
      </trkpt>
      <trkpt lat="48.98568" lon="7.68101">
        <ele>212.16638</ele>
        <time>2024-03-09T13:32:00.091Z</time>
      </trkpt>
      <trkpt lat="48.98557" lon="7.68122">
        <ele>211.903296</ele>
        <time>2024-03-09T13:32:03.647Z</time>
      </trkpt>
      <trkpt lat="48.9853" lon="7.68189">
        <ele>211.127801</ele>
        <time>2024-03-09T13:32:13.852Z</time>
      </trkpt>
      <trkpt lat="48.98515" lon="7.68215">
        <ele>210.797149</ele>
        <time>2024-03-09T13:32:18.222Z</time>
      </trkpt>
      <trkpt lat="48.9846" lon="7.68281">
        <ele>209.499929</ele>
        <time>2024-03-09T13:32:30.911Z</time>
      </trkpt>
      <trkpt lat="48.9838" lon="7.68346">
        <ele>207.404212</ele>
        <time>2024-03-09T13:32:46.765Z</time>
      </trkpt>
      <trkpt lat="48.9835" lon="7.6836">
        <ele>206.680777</ele>
        <time>2024-03-09T13:32:52.461Z</time>
      </trkpt>
      <trkpt lat="48.9831" lon="7.68358">
        <ele>206.047872</ele>
        <time>2024-03-09T13:32:59.777Z</time>
      </trkpt>
      <trkpt lat="48.98275" lon="7.68348">
        <ele>205.946479</ele>
        <time>2024-03-09T13:33:06.678Z</time>
      </trkpt>
      <trkpt lat="48.98247" lon="7.68333">
        <ele>205.859732</ele>
        <time>2024-03-09T13:33:12.948Z</time>
      </trkpt>
      <trkpt lat="48.98186" lon="7.6827">
        <ele>205.650804</ele>
        <time>2024-03-09T13:33:29.581Z</time>
      </trkpt>
      <trkpt lat="48.98177" lon="7.68265">
        <ele>205.622746</ele>
        <time>2024-03-09T13:33:32.210Z</time>
      </trkpt>
      <trkpt lat="48.98147" lon="7.68257">
        <ele>205.708963</ele>
        <time>2024-03-09T13:33:41.011Z</time>
      </trkpt>
      <trkpt lat="48.98115" lon="7.68257">
        <ele>206.047823</ele>
        <time>2024-03-09T13:33:50.510Z</time>
      </trkpt>
      <trkpt lat="48.98032" lon="7.68277">
        <ele>206.926292</ele>
        <time>2024-03-09T13:34:15.563Z</time>
      </trkpt>
      <trkpt lat="48.97739" lon="7.68359">
        <ele>207.631069</ele>
        <time>2024-03-09T13:35:27.662Z</time>
      </trkpt>
      <trkpt lat="48.97707" lon="7.68371">
        <ele>207.352216</ele>
        <time>2024-03-09T13:35:33.869Z</time>
      </trkpt>
      <trkpt lat="48.97663" lon="7.68391">
        <ele>206.96001</ele>
        <time>2024-03-09T13:35:42.759Z</time>
      </trkpt>
      <trkpt lat="48.97657" lon="7.68395">
        <ele>206.905657</ele>
        <time>2024-03-09T13:35:44.126Z</time>
      </trkpt>
      <trkpt lat="48.97636" lon="7.68418">
        <ele>206.689201</ele>
        <time>2024-03-09T13:35:49.236Z</time>
      </trkpt>
      <trkpt lat="48.97596" lon="7.6849">
        <ele>206.020945</ele>
        <time>2024-03-09T13:36:00.192Z</time>
      </trkpt>
      <trkpt lat="48.97582" lon="7.68525">
        <ele>205.7286</ele>
        <time>2024-03-09T13:36:04.869Z</time>
      </trkpt>
      <trkpt lat="48.9757" lon="7.68574">
        <ele>205.35767</ele>
        <time>2024-03-09T13:36:11.208Z</time>
      </trkpt>
      <trkpt lat="48.97562" lon="7.68596">
        <ele>205.182916</ele>
        <time>2024-03-09T13:36:14.472Z</time>
      </trkpt>
      <trkpt lat="48.9756" lon="7.68602">
        <ele>205.131253</ele>
        <time>2024-03-09T13:36:15.472Z</time>
      </trkpt>
      <trkpt lat="48.97543" lon="7.68647">
        <ele>204.762229</ele>
        <time>2024-03-09T13:36:25.193Z</time>
      </trkpt>
      <trkpt lat="48.97535" lon="7.6866">
        <ele>204.991313</ele>
        <time>2024-03-09T13:36:28.391Z</time>
      </trkpt>
      <trkpt lat="48.97529" lon="7.68667">
        <ele>205.204414</ele>
        <time>2024-03-09T13:36:31.359Z</time>
      </trkpt>
      <trkpt lat="48.97521" lon="7.6867">
        <ele>205.463107</ele>
        <time>2024-03-09T13:36:33.752Z</time>
      </trkpt>
      <trkpt lat="48.97514" lon="7.68669">
        <ele>205.666397</ele>
        <time>2024-03-09T13:36:36.603Z</time>
      </trkpt>
      <trkpt lat="48.97509" lon="7.68709">
        <ele>206.484444</ele>
        <time>2024-03-09T13:36:45.911Z</time>
      </trkpt>
      <trkpt lat="48.97505" lon="7.68753">
        <ele>207.35688</ele>
        <time>2024-03-09T13:36:56.925Z</time>
      </trkpt>
      <trkpt lat="48.97505" lon="7.68769">
        <ele>207.667071</ele>
        <time>2024-03-09T13:37:00.127Z</time>
      </trkpt>
      <trkpt lat="48.97513" lon="7.68787">
        <ele>208.105153</ele>
        <time>2024-03-09T13:37:05.069Z</time>
      </trkpt>
      <trkpt lat="48.97551" lon="7.6882">
        <ele>209.42331</ele>
        <time>2024-03-09T13:37:22.047Z</time>
      </trkpt>
      <trkpt lat="48.97598" lon="7.68894">
        <ele>212.155062</ele>
        <time>2024-03-09T13:37:54.678Z</time>
      </trkpt>
      <trkpt lat="48.9763" lon="7.68933">
        <ele>214.068295</ele>
        <time>2024-03-09T13:38:16.750Z</time>
      </trkpt>
      <trkpt lat="48.97668" lon="7.68975">
        <ele>216.237905</ele>
        <time>2024-03-09T13:38:38.915Z</time>
      </trkpt>
      <trkpt lat="48.97688" lon="7.68987">
        <ele>217.228093</ele>
        <time>2024-03-09T13:38:47.044Z</time>
      </trkpt>
      <trkpt lat="48.97727" lon="7.69001">
        <ele>219.017439</ele>
        <time>2024-03-09T13:39:02.305Z</time>
      </trkpt>
      <trkpt lat="48.97746" lon="7.6902">
        <ele>219.914212</ele>
        <time>2024-03-09T13:39:10.949Z</time>
      </trkpt>
      <trkpt lat="48.97749" lon="7.69032">
        <ele>220.236676</ele>
        <time>2024-03-09T13:39:14.189Z</time>
      </trkpt>
      <trkpt lat="48.9775" lon="7.69046">
        <ele>220.611406</ele>
        <time>2024-03-09T13:39:17.837Z</time>
      </trkpt>
      <trkpt lat="48.97746" lon="7.69062">
        <ele>221.063433</ele>
        <time>2024-03-09T13:39:22.493Z</time>
      </trkpt>
      <trkpt lat="48.97741" lon="7.69069">
        <ele>221.310319</ele>
        <time>2024-03-09T13:39:25.177Z</time>
      </trkpt>
      <trkpt lat="48.97729" lon="7.69073">
        <ele>221.824409</ele>
        <time>2024-03-09T13:39:30.816Z</time>
      </trkpt>
      <trkpt lat="48.97681" lon="7.6907">
        <ele>223.716714</ele>
        <time>2024-03-09T13:39:51.627Z</time>
      </trkpt>
      <trkpt lat="48.97613" lon="7.69043">
        <ele>226.808433</ele>
        <time>2024-03-09T13:40:22.818Z</time>
      </trkpt>
      <trkpt lat="48.97562" lon="7.69033">
        <ele>229.425426</ele>
        <time>2024-03-09T13:40:45.381Z</time>
      </trkpt>
      <trkpt lat="48.97469" lon="7.69026">
        <ele>234.218603</ele>
        <time>2024-03-09T13:41:32.786Z</time>
      </trkpt>
      <trkpt lat="48.97446" lon="7.69027">
        <ele>235.233731</ele>
        <time>2024-03-09T13:41:46.101Z</time>
      </trkpt>
      <trkpt lat="48.97414" lon="7.69036">
        <ele>236.505158</ele>
        <time>2024-03-09T13:42:01.536Z</time>
      </trkpt>
      <trkpt lat="48.97402" lon="7.6905">
        <ele>237.092776</ele>
        <time>2024-03-09T13:42:07.112Z</time>
      </trkpt>
      <trkpt lat="48.97398" lon="7.69061">
        <ele>237.421785</ele>
        <time>2024-03-09T13:42:09.486Z</time>
      </trkpt>
      <trkpt lat="48.97395" lon="7.69073">
        <ele>237.740099</ele>
        <time>2024-03-09T13:42:14.208Z</time>
      </trkpt>
      <trkpt lat="48.9739" lon="7.69141">
        <ele>239.483941</ele>
        <time>2024-03-09T13:42:29.851Z</time>
      </trkpt>
      <trkpt lat="48.97385" lon="7.69155">
        <ele>239.889601</ele>
        <time>2024-03-09T13:42:33.157Z</time>
      </trkpt>
      <trkpt lat="48.97378" lon="7.69163">
        <ele>240.238174</ele>
        <time>2024-03-09T13:42:35.535Z</time>
      </trkpt>
      <trkpt lat="48.97374" lon="7.69167">
        <ele>240.421909</ele>
        <time>2024-03-09T13:42:39.252Z</time>
      </trkpt>
      <trkpt lat="48.97362" lon="7.69171">
        <ele>240.895664</ele>
        <time>2024-03-09T13:42:42.942Z</time>
      </trkpt>
      <trkpt lat="48.97329" lon="7.69166">
        <ele>242.27684</ele>
        <time>2024-03-09T13:42:55.426Z</time>
      </trkpt>
      <trkpt lat="48.97288" lon="7.69154">
        <ele>244.553623</ele>
        <time>2024-03-09T13:43:13.846Z</time>
      </trkpt>
      <trkpt lat="48.9725" lon="7.69159">
        <ele>246.610967</ele>
        <time>2024-03-09T13:43:33.830Z</time>
      </trkpt>
      <trkpt lat="48.9719" lon="7.69183">
        <ele>249.914486</ele>
        <time>2024-03-09T13:44:02.595Z</time>
      </trkpt>
      <trkpt lat="48.97136" lon="7.69217">
        <ele>253.769504</ele>
        <time>2024-03-09T13:44:37.051Z</time>
      </trkpt>
      <trkpt lat="48.97116" lon="7.69233">
        <ele>255.521882</ele>
        <time>2024-03-09T13:44:52.871Z</time>
      </trkpt>
      <trkpt lat="48.97099" lon="7.69249">
        <ele>257.098027</ele>
        <time>2024-03-09T13:45:05.924Z</time>
      </trkpt>
      <trkpt lat="48.97087" lon="7.6926">
        <ele>258.1794</ele>
        <time>2024-03-09T13:45:16.270Z</time>
      </trkpt>
      <trkpt lat="48.97047" lon="7.69306">
        <ele>262.079506</ele>
        <time>2024-03-09T13:45:49.964Z</time>
      </trkpt>
      <trkpt lat="48.96993" lon="7.69387">
        <ele>266.106367</ele>
        <time>2024-03-09T13:46:33.300Z</time>
      </trkpt>
      <trkpt lat="48.96941" lon="7.69491">
        <ele>267.674787</ele>
        <time>2024-03-09T13:47:01.999Z</time>
      </trkpt>
      <trkpt lat="48.96932" lon="7.69542">
        <ele>268.300744</ele>
        <time>2024-03-09T13:47:09.183Z</time>
      </trkpt>
      <trkpt lat="48.96925" lon="7.69562">
        <ele>268.583621</ele>
        <time>2024-03-09T13:47:12.110Z</time>
      </trkpt>
      <trkpt lat="48.96918" lon="7.69575">
        <ele>268.787611</ele>
        <time>2024-03-09T13:47:14.147Z</time>
      </trkpt>
      <trkpt lat="48.96813" lon="7.69711">
        <ele>263.456866</ele>
        <time>2024-03-09T13:47:36.739Z</time>
      </trkpt>
      <trkpt lat="48.96802" lon="7.69732">
        <ele>262.734954</ele>
        <time>2024-03-09T13:47:39.586Z</time>
      </trkpt>
      <trkpt lat="48.96795" lon="7.69766">
        <ele>261.818106</ele>
        <time>2024-03-09T13:47:43.271Z</time>
      </trkpt>
      <trkpt lat="48.96796" lon="7.69801">
        <ele>260.862514</ele>
        <time>2024-03-09T13:47:46.954Z</time>
      </trkpt>
      <trkpt lat="48.96822" lon="7.69893">
        <ele>258.172509</ele>
        <time>2024-03-09T13:47:57.398Z</time>
      </trkpt>
      <trkpt lat="48.96834" lon="7.69921">
        <ele>257.262739</ele>
        <time>2024-03-09T13:48:00.989Z</time>
      </trkpt>
      <trkpt lat="48.969" lon="7.7004">
        <ele>254.415071</ele>
        <time>2024-03-09T13:48:18.319Z</time>
      </trkpt>
      <trkpt lat="48.96925" lon="7.70121">
        <ele>254.629237</ele>
        <time>2024-03-09T13:48:30.138Z</time>
      </trkpt>
      <trkpt lat="48.9695" lon="7.70197">
        <ele>254.830783</ele>
        <time>2024-03-09T13:48:46.432Z</time>
      </trkpt>
      <trkpt lat="48.9695" lon="7.70221">
        <ele>254.889902</ele>
        <time>2024-03-09T13:48:52.401Z</time>
      </trkpt>
      <trkpt lat="48.96947" lon="7.70238">
        <ele>254.931534</ele>
        <time>2024-03-09T13:48:56.825Z</time>
      </trkpt>
      <trkpt lat="48.96929" lon="7.70273">
        <ele>256.005373</ele>
        <time>2024-03-09T13:49:08.946Z</time>
      </trkpt>
      <trkpt lat="48.96842" lon="7.704">
        <ele>261.865986</ele>
        <time>2024-03-09T13:50:08.560Z</time>
      </trkpt>
      <trkpt lat="48.96714" lon="7.70577">
        <ele>269.654262</ele>
        <time>2024-03-09T13:51:29.617Z</time>
      </trkpt>
      <trkpt lat="48.96652" lon="7.70663">
        <ele>273.041602</ele>
        <time>2024-03-09T13:51:59.883Z</time>
      </trkpt>
      <trkpt lat="48.96627" lon="7.7069">
        <ele>274.157952</ele>
        <time>2024-03-09T13:52:13.164Z</time>
      </trkpt>
      <trkpt lat="48.96611" lon="7.70709">
        <ele>274.920718</ele>
        <time>2024-03-09T13:52:21.896Z</time>
      </trkpt>
      <trkpt lat="48.96593" lon="7.70729">
        <ele>275.711241</ele>
        <time>2024-03-09T13:52:30.352Z</time>
      </trkpt>
      <trkpt lat="48.96572" lon="7.70753">
        <ele>276.688809</ele>
        <time>2024-03-09T13:52:41.431Z</time>
      </trkpt>
      <trkpt lat="48.96563" lon="7.70763">
        <ele>277.100862</ele>
        <time>2024-03-09T13:52:45.236Z</time>
      </trkpt>
      <trkpt lat="48.96553" lon="7.70774">
        <ele>277.553834</ele>
        <time>2024-03-09T13:52:50.391Z</time>
      </trkpt>
      <trkpt lat="48.96522" lon="7.70809">
        <ele>278.93269</ele>
        <time>2024-03-09T13:53:07.039Z</time>
      </trkpt>
      <trkpt lat="48.96497" lon="7.70835">
        <ele>280.010481</ele>
        <time>2024-03-09T13:53:20.918Z</time>
      </trkpt>
      <trkpt lat="48.96448" lon="7.70884">
        <ele>282.053257</ele>
        <time>2024-03-09T13:53:43.700Z</time>
      </trkpt>
      <trkpt lat="48.96435" lon="7.70861">
        <ele>282.754501</ele>
        <time>2024-03-09T13:53:50.418Z</time>
      </trkpt>
      <trkpt lat="48.96414" lon="7.70819">
        <ele>283.957495</ele>
        <time>2024-03-09T13:54:06.311Z</time>
      </trkpt>
      <trkpt lat="48.9641" lon="7.70812">
        <ele>284.161806</ele>
        <time>2024-03-09T13:54:08.109Z</time>
      </trkpt>
      <trkpt lat="48.96403" lon="7.70833">
        <ele>284.637359</ele>
        <time>2024-03-09T13:54:17.177Z</time>
      </trkpt>
      <trkpt lat="48.9641" lon="7.70812">
        <ele>284.956931</ele>
        <time>2024-03-09T13:54:21.483Z</time>
      </trkpt>
      <trkpt lat="48.96414" lon="7.70819">
        <ele>285.073129</ele>
        <time>2024-03-09T13:54:23.789Z</time>
      </trkpt>
      <trkpt lat="48.96435" lon="7.70861">
        <ele>285.75731</ele>
        <time>2024-03-09T13:54:34.386Z</time>
      </trkpt>
      <trkpt lat="48.96448" lon="7.70884">
        <ele>286.15613</ele>
        <time>2024-03-09T13:54:42.298Z</time>
      </trkpt>
      <trkpt lat="48.96425" lon="7.70908">
        <ele>286.708337</ele>
        <time>2024-03-09T13:54:55.999Z</time>
      </trkpt>
      <trkpt lat="48.96196" lon="7.71156">
        <ele>289.284275</ele>
        <time>2024-03-09T13:56:54.552Z</time>
      </trkpt>
      <trkpt lat="48.96198" lon="7.71164">
        <ele>289.190417</ele>
        <time>2024-03-09T13:56:56.670Z</time>
      </trkpt>
      <trkpt lat="48.96203" lon="7.71189">
        <ele>288.927134</ele>
        <time>2024-03-09T13:57:02.543Z</time>
      </trkpt>
      <trkpt lat="48.96209" lon="7.71282">
        <ele>287.977308</ele>
        <time>2024-03-09T13:57:22.839Z</time>
      </trkpt>
      <trkpt lat="48.96212" lon="7.71439">
        <ele>285.60459</ele>
        <time>2024-03-09T13:57:54.659Z</time>
      </trkpt>
      <trkpt lat="48.96225" lon="7.71548">
        <ele>282.989282</ele>
        <time>2024-03-09T13:58:16.610Z</time>
      </trkpt>
      <trkpt lat="48.96256" lon="7.71736">
        <ele>278.274165</ele>
        <time>2024-03-09T13:58:54.809Z</time>
      </trkpt>
      <trkpt lat="48.96278" lon="7.71837">
        <ele>275.623194</ele>
        <time>2024-03-09T13:59:15.861Z</time>
      </trkpt>
      <trkpt lat="48.96295" lon="7.71958">
        <ele>272.236393</ele>
        <time>2024-03-09T13:59:40.236Z</time>
      </trkpt>
      <trkpt lat="48.9631" lon="7.72103">
        <ele>267.570596</ele>
        <time>2024-03-09T14:00:08.627Z</time>
      </trkpt>
      <trkpt lat="48.96342" lon="7.72248">
        <ele>261.377124</ele>
        <time>2024-03-09T14:00:36.490Z</time>
      </trkpt>
      <trkpt lat="48.96367" lon="7.72352">
        <ele>255.704261</ele>
        <time>2024-03-09T14:00:56.095Z</time>
      </trkpt>
      <trkpt lat="48.96395" lon="7.72495">
        <ele>247.634083</ele>
        <time>2024-03-09T14:01:21.686Z</time>
      </trkpt>
      <trkpt lat="48.96396" lon="7.72541">
        <ele>244.982458</ele>
        <time>2024-03-09T14:01:29.403Z</time>
      </trkpt>
      <trkpt lat="48.96409" lon="7.72639">
        <ele>239.152032</ele>
        <time>2024-03-09T14:01:46.503Z</time>
      </trkpt>
      <trkpt lat="48.96422" lon="7.72703">
        <ele>235.191849</ele>
        <time>2024-03-09T14:01:58.244Z</time>
      </trkpt>
      <trkpt lat="48.96441" lon="7.72725">
        <ele>234.249592</ele>
        <time>2024-03-09T14:02:04.617Z</time>
      </trkpt>
      <trkpt lat="48.96458" lon="7.72727">
        <ele>233.682848</ele>
        <time>2024-03-09T14:02:09.059Z</time>
      </trkpt>
      <trkpt lat="48.9648" lon="7.72693">
        <ele>232.56496</ele>
        <time>2024-03-09T14:02:17.996Z</time>
      </trkpt>
      <trkpt lat="48.965" lon="7.7269">
        <ele>231.867792</ele>
        <time>2024-03-09T14:02:23.692Z</time>
      </trkpt>
      <trkpt lat="48.96507" lon="7.72699">
        <ele>231.543699</ele>
        <time>2024-03-09T14:02:26.696Z</time>
      </trkpt>
      <trkpt lat="48.96526" lon="7.72719">
        <ele>230.736558</ele>
        <time>2024-03-09T14:02:30.871Z</time>
      </trkpt>
      <trkpt lat="48.96545" lon="7.72828">
        <ele>228.891412</ele>
        <time>2024-03-09T14:02:49.403Z</time>
      </trkpt>
      <trkpt lat="48.96563" lon="7.72869">
        <ele>229.256569</ele>
        <time>2024-03-09T14:02:57.982Z</time>
      </trkpt>
      <trkpt lat="48.96594" lon="7.7293">
        <ele>229.827787</ele>
        <time>2024-03-09T14:03:14.762Z</time>
      </trkpt>
      <trkpt lat="48.96613" lon="7.72962">
        <ele>230.147768</ele>
        <time>2024-03-09T14:03:24.801Z</time>
      </trkpt>
      <trkpt lat="48.96604" lon="7.72972">
        <ele>230.275394</ele>
        <time>2024-03-09T14:03:28.728Z</time>
      </trkpt>
      <trkpt lat="48.96585" lon="7.73008">
        <ele>230.616214</ele>
        <time>2024-03-09T14:03:38.581Z</time>
      </trkpt>
      <trkpt lat="48.9646" lon="7.73141">
        <ele>228.168392</ele>
        <time>2024-03-09T14:04:09.070Z</time>
      </trkpt>
      <trkpt lat="48.96418" lon="7.73173">
        <ele>227.04101</ele>
        <time>2024-03-09T14:04:17.192Z</time>
      </trkpt>
      <trkpt lat="48.96366" lon="7.73188">
        <ele>224.369056</ele>
        <time>2024-03-09T14:04:26.122Z</time>
      </trkpt>
      <trkpt lat="48.96255" lon="7.73281">
        <ele>217.92563</ele>
        <time>2024-03-09T14:04:46.858Z</time>
      </trkpt>
      <trkpt lat="48.96201" lon="7.7332">
        <ele>214.492372</ele>
        <time>2024-03-09T14:04:56.703Z</time>
      </trkpt>
      <trkpt lat="48.96138" lon="7.7338">
        <ele>210.255347</ele>
        <time>2024-03-09T14:05:08.700Z</time>
      </trkpt>
      <trkpt lat="48.96158" lon="7.73446">
        <ele>207.432667</ele>
        <time>2024-03-09T14:05:22.072Z</time>
      </trkpt>
      <trkpt lat="48.96209" lon="7.73563">
        <ele>201.439289</ele>
        <time>2024-03-09T14:05:47.584Z</time>
      </trkpt>
      <trkpt lat="48.96228" lon="7.73583">
        <ele>199.941483</ele>
        <time>2024-03-09T14:05:53.863Z</time>
      </trkpt>
      <trkpt lat="48.96269" lon="7.73617">
        <ele>196.877305</ele>
        <time>2024-03-09T14:06:06.680Z</time>
      </trkpt>
      <trkpt lat="48.96287" lon="7.73622">
        <ele>195.928019</ele>
        <time>2024-03-09T14:06:11.425Z</time>
      </trkpt>
      <trkpt lat="48.9629" lon="7.73629">
        <ele>195.661601</ele>
        <time>2024-03-09T14:06:13.146Z</time>
      </trkpt>
      <trkpt lat="48.96301" lon="7.73633">
        <ele>195.175485</ele>
        <time>2024-03-09T14:06:14.808Z</time>
      </trkpt>
      <trkpt lat="48.96307" lon="7.73652">
        <ele>194.564278</ele>
        <time>2024-03-09T14:06:16.777Z</time>
      </trkpt>
      <trkpt lat="48.96317" lon="7.73678">
        <ele>193.653436</ele>
        <time>2024-03-09T14:06:20.035Z</time>
      </trkpt>
      <trkpt lat="48.96323" lon="7.73696">
        <ele>193.06802</ele>
        <time>2024-03-09T14:06:21.953Z</time>
      </trkpt>
      <trkpt lat="48.96323" lon="7.73697">
        <ele>193.013046</ele>
        <time>2024-03-09T14:06:22.144Z</time>
      </trkpt>
      <trkpt lat="48.96329" lon="7.73714">
        <ele>192.44508</ele>
        <time>2024-03-09T14:06:24.300Z</time>
      </trkpt>
      <trkpt lat="48.96332" lon="7.73723">
        <ele>192.127877</ele>
        <time>2024-03-09T14:06:25.432Z</time>
      </trkpt>
      <trkpt lat="48.96334" lon="7.73732">
        <ele>191.872747</ele>
        <time>2024-03-09T14:06:26.350Z</time>
      </trkpt>
      <trkpt lat="48.96333" lon="7.73741">
        <ele>191.583428</ele>
        <time>2024-03-09T14:06:27.300Z</time>
      </trkpt>
      <trkpt lat="48.96329" lon="7.73752">
        <ele>191.191807</ele>
        <time>2024-03-09T14:06:28.679Z</time>
      </trkpt>
      <trkpt lat="48.9631" lon="7.73776">
        <ele>190.078657</ele>
        <time>2024-03-09T14:06:32.864Z</time>
      </trkpt>
      <trkpt lat="48.96298" lon="7.7379">
        <ele>189.400784</ele>
        <time>2024-03-09T14:06:35.355Z</time>
      </trkpt>
      <trkpt lat="48.96294" lon="7.73795">
        <ele>189.185621</ele>
        <time>2024-03-09T14:06:36.354Z</time>
      </trkpt>
      <trkpt lat="48.96283" lon="7.73808">
        <ele>188.529424</ele>
        <time>2024-03-09T14:06:38.830Z</time>
      </trkpt>
      <trkpt lat="48.96279" lon="7.73813">
        <ele>188.281766</ele>
        <time>2024-03-09T14:06:39.698Z</time>
      </trkpt>
      <trkpt lat="48.96265" lon="7.73829">
        <ele>188.186483</ele>
        <time>2024-03-09T14:06:43.054Z</time>
      </trkpt>
      <trkpt lat="48.96262" lon="7.73833">
        <ele>188.174852</ele>
        <time>2024-03-09T14:06:43.821Z</time>
      </trkpt>
      <trkpt lat="48.9625" lon="7.73846">
        <ele>188.135575</ele>
        <time>2024-03-09T14:06:46.579Z</time>
      </trkpt>
      <trkpt lat="48.96237" lon="7.73863">
        <ele>188.08718</ele>
        <time>2024-03-09T14:06:50.375Z</time>
      </trkpt>
      <trkpt lat="48.96232" lon="7.73871">
        <ele>188.067304</ele>
        <time>2024-03-09T14:06:51.734Z</time>
      </trkpt>
      <trkpt lat="48.96222" lon="7.73887">
        <ele>188.028291</ele>
        <time>2024-03-09T14:06:55.134Z</time>
      </trkpt>
      <trkpt lat="48.96208" lon="7.73886">
        <ele>187.988825</ele>
        <time>2024-03-09T14:06:59.725Z</time>
      </trkpt>
      <trkpt lat="48.96203" lon="7.73888">
        <ele>187.97608</ele>
        <time>2024-03-09T14:07:01.046Z</time>
      </trkpt>
      <trkpt lat="48.96208" lon="7.73886">
        <ele>187.963336</ele>
        <time>2024-03-09T14:07:02.481Z</time>
      </trkpt>
      <trkpt lat="48.96222" lon="7.73887">
        <ele>187.92387</ele>
        <time>2024-03-09T14:07:07.151Z</time>
      </trkpt>
      <trkpt lat="48.96201" lon="7.73936">
        <ele>187.816702</ele>
        <time>2024-03-09T14:07:17.092Z</time>
      </trkpt>
      <trkpt lat="48.9619" lon="7.73971">
        <ele>187.747656</ele>
        <time>2024-03-09T14:07:23.625Z</time>
      </trkpt>
      <trkpt lat="48.96175" lon="7.74003">
        <ele>187.869118</ele>
        <time>2024-03-09T14:07:29.693Z</time>
      </trkpt>
      <trkpt lat="48.96144" lon="7.74048">
        <ele>188.139841</ele>
        <time>2024-03-09T14:07:41.251Z</time>
      </trkpt>
      <trkpt lat="48.9611" lon="7.74078">
        <ele>188.386684</ele>
        <time>2024-03-09T14:07:51.939Z</time>
      </trkpt>
      <trkpt lat="48.96088" lon="7.74094">
        <ele>188.540095</ele>
        <time>2024-03-09T14:07:57.692Z</time>
      </trkpt>
      <trkpt lat="48.96025" lon="7.74141">
        <ele>188.910922</ele>
        <time>2024-03-09T14:08:14.900Z</time>
      </trkpt>
      <trkpt lat="48.95992" lon="7.74165">
        <ele>188.995771</ele>
        <time>2024-03-09T14:08:23.371Z</time>
      </trkpt>
      <trkpt lat="48.95983" lon="7.74169">
        <ele>189.018955</ele>
        <time>2024-03-09T14:08:26.110Z</time>
      </trkpt>
      <trkpt lat="48.95972" lon="7.74171">
        <ele>189.04547</ele>
        <time>2024-03-09T14:08:28.514Z</time>
      </trkpt>
      <trkpt lat="48.95952" lon="7.74168">
        <ele>189.091955</ele>
        <time>2024-03-09T14:08:33.024Z</time>
      </trkpt>
      <trkpt lat="48.95945" lon="7.7416">
        <ele>189.112597</ele>
        <time>2024-03-09T14:08:35.246Z</time>
      </trkpt>
      <trkpt lat="48.95942" lon="7.7416">
        <ele>189.119877</ele>
        <time>2024-03-09T14:08:35.984Z</time>
      </trkpt>
      <trkpt lat="48.95903" lon="7.74151">
        <ele>189.212824</ele>
        <time>2024-03-09T14:08:46.220Z</time>
      </trkpt>
      <trkpt lat="48.95893" lon="7.74137">
        <ele>189.243525</ele>
        <time>2024-03-09T14:08:49.643Z</time>
      </trkpt>
      <trkpt lat="48.95871" lon="7.74145">
        <ele>189.261807</ele>
        <time>2024-03-09T14:08:54.788Z</time>
      </trkpt>
      <trkpt lat="48.95749" lon="7.74156">
        <ele>187.947894</ele>
        <time>2024-03-09T14:09:19.147Z</time>
      </trkpt>
      <trkpt lat="48.95666" lon="7.74145">
        <ele>186.956243</ele>
        <time>2024-03-09T14:09:34.625Z</time>
      </trkpt>
      <trkpt lat="48.95628" lon="7.74121">
        <ele>186.379001</ele>
        <time>2024-03-09T14:09:42.347Z</time>
      </trkpt>
      <trkpt lat="48.95595" lon="7.74121">
        <ele>185.915892</ele>
        <time>2024-03-09T14:09:48.443Z</time>
      </trkpt>
      <trkpt lat="48.95585" lon="7.74153">
        <ele>185.58343</ele>
        <time>2024-03-09T14:09:52.970Z</time>
      </trkpt>
      <trkpt lat="48.95542" lon="7.74206">
        <ele>184.807078</ele>
        <time>2024-03-09T14:10:03.837Z</time>
      </trkpt>
      <trkpt lat="48.95527" lon="7.74213">
        <ele>184.661298</ele>
        <time>2024-03-09T14:10:07.062Z</time>
      </trkpt>
      <trkpt lat="48.95438" lon="7.74292">
        <ele>183.698629</ele>
        <time>2024-03-09T14:10:29.336Z</time>
      </trkpt>
      <trkpt lat="48.95421" lon="7.74316">
        <ele>183.478194</ele>
        <time>2024-03-09T14:10:33.952Z</time>
      </trkpt>
      <trkpt lat="48.95341" lon="7.74458">
        <ele>181.170614</ele>
        <time>2024-03-09T14:10:56.252Z</time>
      </trkpt>
      <trkpt lat="48.95313" lon="7.74488">
        <ele>180.395479</ele>
        <time>2024-03-09T14:11:02.414Z</time>
      </trkpt>
      <trkpt lat="48.95306" lon="7.74504">
        <ele>180.109679</ele>
        <time>2024-03-09T14:11:04.649Z</time>
      </trkpt>
      <trkpt lat="48.9529" lon="7.74503">
        <ele>179.761799</ele>
        <time>2024-03-09T14:11:07.480Z</time>
      </trkpt>
      <trkpt lat="48.95302" lon="7.74533">
        <ele>179.245953</ele>
        <time>2024-03-09T14:11:11.794Z</time>
      </trkpt>
      <trkpt lat="48.95316" lon="7.74564">
        <ele>178.732008</ele>
        <time>2024-03-09T14:11:16.195Z</time>
      </trkpt>
      <trkpt lat="48.95314" lon="7.7458">
        <ele>178.520525</ele>
        <time>2024-03-09T14:11:18.063Z</time>
      </trkpt>
      <trkpt lat="48.95307" lon="7.74643">
        <ele>177.685855</ele>
        <time>2024-03-09T14:11:25.472Z</time>
      </trkpt>
      <trkpt lat="48.95279" lon="7.7475">
        <ele>176.180722</ele>
        <time>2024-03-09T14:11:39.386Z</time>
      </trkpt>
      <trkpt lat="48.95263" lon="7.74775">
        <ele>175.733563</ele>
        <time>2024-03-09T14:11:43.542Z</time>
      </trkpt>
      <trkpt lat="48.95274" lon="7.748">
        <ele>175.452635</ele>
        <time>2024-03-09T14:11:47.946Z</time>
      </trkpt>
      <trkpt lat="48.95266" lon="7.74812">
        <ele>175.409823</ele>
        <time>2024-03-09T14:11:50.241Z</time>
      </trkpt>
      <trkpt lat="48.9525" lon="7.74834">
        <ele>175.330384</ele>
        <time>2024-03-09T14:11:54.654Z</time>
      </trkpt>
      <trkpt lat="48.95328" lon="7.7498">
        <ele>174.861683</ele>
        <time>2024-03-09T14:12:22.681Z</time>
      </trkpt>
      <trkpt lat="48.95378" lon="7.75066">
        <ele>175.059563</ele>
        <time>2024-03-09T14:12:39.778Z</time>
      </trkpt>
      <trkpt lat="48.95397" lon="7.75092">
        <ele>175.177713</ele>
        <time>2024-03-09T14:12:46.325Z</time>
      </trkpt>
      <trkpt lat="48.95441" lon="7.75131">
        <ele>175.404811</ele>
        <time>2024-03-09T14:12:59.460Z</time>
      </trkpt>
      <trkpt lat="48.95489" lon="7.75159">
        <ele>175.723205</ele>
        <time>2024-03-09T14:13:13.351Z</time>
      </trkpt>
      <trkpt lat="48.95728" lon="7.75274">
        <ele>179.370755</ele>
        <time>2024-03-09T14:14:34.806Z</time>
      </trkpt>
      <trkpt lat="48.95755" lon="7.75291">
        <ele>179.645605</ele>
        <time>2024-03-09T14:14:43.399Z</time>
      </trkpt>
      <trkpt lat="48.95787" lon="7.75322">
        <ele>179.997993</ele>
        <time>2024-03-09T14:14:53.073Z</time>
      </trkpt>
      <trkpt lat="48.95826" lon="7.75367">
        <ele>180.156325</ele>
        <time>2024-03-09T14:15:03.991Z</time>
      </trkpt>
      <trkpt lat="48.95841" lon="7.75388">
        <ele>179.896929</ele>
        <time>2024-03-09T14:15:08.285Z</time>
      </trkpt>
      <trkpt lat="48.95881" lon="7.75464">
        <ele>179.08283</ele>
        <time>2024-03-09T14:15:21.117Z</time>
      </trkpt>
      <trkpt lat="48.95935" lon="7.75577">
        <ele>178.000109</ele>
        <time>2024-03-09T14:15:39.095Z</time>
      </trkpt>
      <trkpt lat="48.95941" lon="7.75594">
        <ele>177.964133</ele>
        <time>2024-03-09T14:15:41.367Z</time>
      </trkpt>
      <trkpt lat="48.95948" lon="7.75611">
        <ele>177.928293</ele>
        <time>2024-03-09T14:15:43.998Z</time>
      </trkpt>
      <trkpt lat="48.95939" lon="7.75652">
        <ele>177.84737</ele>
        <time>2024-03-09T14:15:49.729Z</time>
      </trkpt>
      <trkpt lat="48.95934" lon="7.75675">
        <ele>177.802325</ele>
        <time>2024-03-09T14:15:53.250Z</time>
      </trkpt>
      <trkpt lat="48.95928" lon="7.75702">
        <ele>177.749348</ele>
        <time>2024-03-09T14:15:56.879Z</time>
      </trkpt>
      <trkpt lat="48.95917" lon="7.75736">
        <ele>177.679184</ele>
        <time>2024-03-09T14:16:02.878Z</time>
      </trkpt>
      <trkpt lat="48.9591" lon="7.75754">
        <ele>177.640651</ele>
        <time>2024-03-09T14:16:05.885Z</time>
      </trkpt>
      <trkpt lat="48.95899" lon="7.75789">
        <ele>177.569443</ele>
        <time>2024-03-09T14:16:12.958Z</time>
      </trkpt>
      <trkpt lat="48.95891" lon="7.75791">
        <ele>177.545913</ele>
        <time>2024-03-09T14:16:15.071Z</time>
      </trkpt>
      <trkpt lat="48.95863" lon="7.75791">
        <ele>178.141137</ele>
        <time>2024-03-09T14:16:24.792Z</time>
      </trkpt>
      <trkpt lat="48.95826" lon="7.75791">
        <ele>179.342306</ele>
        <time>2024-03-09T14:16:35.640Z</time>
      </trkpt>
      <trkpt lat="48.95786" lon="7.75782">
        <ele>180.672208</ele>
        <time>2024-03-09T14:16:51.023Z</time>
      </trkpt>
      <trkpt lat="48.95743" lon="7.75765">
        <ele>182.129077</ele>
        <time>2024-03-09T14:17:11.075Z</time>
      </trkpt>
      <trkpt lat="48.95692" lon="7.75738">
        <ele>184.098122</ele>
        <time>2024-03-09T14:17:36.112Z</time>
      </trkpt>
      <trkpt lat="48.95672" lon="7.75725">
        <ele>185.133087</ele>
        <time>2024-03-09T14:17:48.233Z</time>
      </trkpt>
      <trkpt lat="48.95659" lon="7.75723">
        <ele>185.713742</ele>
        <time>2024-03-09T14:17:54.039Z</time>
      </trkpt>
      <trkpt lat="48.95645" lon="7.75726">
        <ele>186.381843</ele>
        <time>2024-03-09T14:18:02.000Z</time>
      </trkpt>
      <trkpt lat="48.95547" lon="7.75792">
        <ele>191.396289</ele>
        <time>2024-03-09T14:18:51.915Z</time>
      </trkpt>
      <trkpt lat="48.95524" lon="7.75834">
        <ele>192.661098</ele>
        <time>2024-03-09T14:19:06.190Z</time>
      </trkpt>
      <trkpt lat="48.95517" lon="7.75841">
        <ele>192.91662</ele>
        <time>2024-03-09T14:19:09.278Z</time>
      </trkpt>
      <trkpt lat="48.95508" lon="7.75845">
        <ele>193.213184</ele>
        <time>2024-03-09T14:19:13.030Z</time>
      </trkpt>
      <trkpt lat="48.95486" lon="7.7585">
        <ele>193.910143</ele>
        <time>2024-03-09T14:19:21.342Z</time>
      </trkpt>
      <trkpt lat="48.95441" lon="7.75859">
        <ele>195.327786</ele>
        <time>2024-03-09T14:19:37.913Z</time>
      </trkpt>
      <trkpt lat="48.95415" lon="7.7587">
        <ele>196.163044</ele>
        <time>2024-03-09T14:19:47.094Z</time>
      </trkpt>
      <trkpt lat="48.9539" lon="7.75884">
        <ele>197.012926</ele>
        <time>2024-03-09T14:19:56.174Z</time>
      </trkpt>
      <trkpt lat="48.9537" lon="7.75902">
        <ele>197.911975</ele>
        <time>2024-03-09T14:20:06.690Z</time>
      </trkpt>
      <trkpt lat="48.95356" lon="7.75917">
        <ele>198.719172</ele>
        <time>2024-03-09T14:20:12.108Z</time>
      </trkpt>
      <trkpt lat="48.95285" lon="7.76014">
        <ele>203.294949</ele>
        <time>2024-03-09T14:20:59.941Z</time>
      </trkpt>
      <trkpt lat="48.9528" lon="7.76026">
        <ele>203.755629</ele>
        <time>2024-03-09T14:21:04.522Z</time>
      </trkpt>
      <trkpt lat="48.95277" lon="7.76038">
        <ele>204.162858</ele>
        <time>2024-03-09T14:21:09.565Z</time>
      </trkpt>
      <trkpt lat="48.95277" lon="7.76057">
        <ele>204.752599</ele>
        <time>2024-03-09T14:21:16.170Z</time>
      </trkpt>
      <trkpt lat="48.95283" lon="7.76098">
        <ele>206.086511</ele>
        <time>2024-03-09T14:21:30.079Z</time>
      </trkpt>
      <trkpt lat="48.95288" lon="7.76122">
        <ele>206.088486</ele>
        <time>2024-03-09T14:21:37.634Z</time>
      </trkpt>
      <trkpt lat="48.95293" lon="7.76155">
        <ele>206.088486</ele>
        <time>2024-03-09T14:21:48.884Z</time>
      </trkpt>
      <trkpt lat="48.95295" lon="7.76188">
        <ele>206.088486</ele>
        <time>2024-03-09T14:21:57.408Z</time>
      </trkpt>
      <trkpt lat="48.95324" lon="7.76151">
        <ele>206.088486</ele>
        <time>2024-03-09T14:22:14.116Z</time>
      </trkpt>
      <trkpt lat="48.95335" lon="7.76141">
        <ele>206.088486</ele>
        <time>2024-03-09T14:22:21.011Z</time>
      </trkpt>
      <trkpt lat="48.95354" lon="7.76126">
        <ele>206.088486</ele>
        <time>2024-03-09T14:22:27.646Z</time>
      </trkpt>
      <trkpt lat="48.95367" lon="7.76137">
        <ele>206.088486</ele>
        <time>2024-03-09T14:22:33.365Z</time>
      </trkpt>
    </trkseg>
  </trk>
</gpx>